<?xml version="1.0" encoding="utf-8"?>
<gpx xmlns:xsi="http://www.w3.org/2001/XMLSchema-instance" xmlns:xsd="http://www.w3.org/2001/XMLSchema" version="1.1" creator="Shapelink.com" xmlns="http://www.topografix.com/GPX/1/1" xmlns:gpxtpx="http://www.garmin.com/xmlschemas/TrackPointExtension/v1">
  <metadata>
    <name>Cykling 23.31 km, 2019-07-13</name>
    <desc></desc>
    <author><name>Marian Moron</name></author> 
    <time>2019-07-13T15:02:14Z</time>
  </metadata>
  <trk>
    <name>Cykling 23.31 km, 2019-07-13</name>
    <trkseg>
      <trkpt lat="50.849041185299" lon="5.705222293801">
        <ele>67</ele>
        <time>2019-07-13T15:02:14Z</time>
      </trkpt>
      <trkpt lat="50.849133972932" lon="5.705233860823">
        <ele>62.8</ele>
        <time>2019-07-13T15:02:19Z</time>
      </trkpt>
      <trkpt lat="50.849342682242" lon="5.705200333223">
        <ele>59.6</ele>
        <time>2019-07-13T15:02:28Z</time>
      </trkpt>
      <trkpt lat="50.84934871721" lon="5.705272166106">
        <ele>58.6</ele>
        <time>2019-07-13T15:02:31Z</time>
      </trkpt>
      <trkpt lat="50.849115448933" lon="5.705422034478">
        <ele>57.4</ele>
        <time>2019-07-13T15:02:44Z</time>
      </trkpt>
      <trkpt lat="50.84909977478" lon="5.705387333412">
        <ele>60.6</ele>
        <time>2019-07-13T15:05:31Z</time>
      </trkpt>
      <trkpt lat="50.849147383972" lon="5.705353805812">
        <ele>60.4</ele>
        <time>2019-07-13T15:05:35Z</time>
      </trkpt>
      <trkpt lat="50.849622721521" lon="5.70495750958">
        <ele>60.2</ele>
        <time>2019-07-13T15:05:57Z</time>
      </trkpt>
      <trkpt lat="50.849751718962" lon="5.704757265989">
        <ele>58.2</ele>
        <time>2019-07-13T15:06:04Z</time>
      </trkpt>
      <trkpt lat="50.850277347911" lon="5.70457361856">
        <ele>58.4</ele>
        <time>2019-07-13T15:06:24Z</time>
      </trkpt>
      <trkpt lat="50.85079291858" lon="5.704259129672">
        <ele>54.8</ele>
        <time>2019-07-13T15:06:40Z</time>
      </trkpt>
      <trkpt lat="50.850968267928" lon="5.704161480537">
        <ele>53.6</ele>
        <time>2019-07-13T15:06:46Z</time>
      </trkpt>
      <trkpt lat="50.85146598515" lon="5.703823103234">
        <ele>47.4</ele>
        <time>2019-07-13T15:07:05Z</time>
      </trkpt>
      <trkpt lat="50.851376382639" lon="5.702989355641">
        <ele>44.4</ele>
        <time>2019-07-13T15:07:22Z</time>
      </trkpt>
      <trkpt lat="50.851210840114" lon="5.70215460222">
        <ele>42.8</ele>
        <time>2019-07-13T15:07:44Z</time>
      </trkpt>
      <trkpt lat="50.85119441159" lon="5.702098024395">
        <ele>42.6</ele>
        <time>2019-07-13T15:07:50Z</time>
      </trkpt>
      <trkpt lat="50.851039094983" lon="5.701265366449">
        <ele>42</ele>
        <time>2019-07-13T15:08:07Z</time>
      </trkpt>
      <trkpt lat="50.850946726445" lon="5.701029667421">
        <ele>41.8</ele>
        <time>2019-07-13T15:08:15Z</time>
      </trkpt>
      <trkpt lat="50.850950749757" lon="5.701020112055">
        <ele>42</ele>
        <time>2019-07-13T15:08:19Z</time>
      </trkpt>
      <trkpt lat="50.850956197992" lon="5.701011897793">
        <ele>42.2</ele>
        <time>2019-07-13T15:08:20Z</time>
      </trkpt>
      <trkpt lat="50.850998358949" lon="5.700980800944">
        <ele>42.8</ele>
        <time>2019-07-13T15:08:24Z</time>
      </trkpt>
      <trkpt lat="50.851339083184" lon="5.700321732147">
        <ele>48.6</ele>
        <time>2019-07-13T15:08:48Z</time>
      </trkpt>
      <trkpt lat="50.851613171314" lon="5.699553195736">
        <ele>49.8</ele>
        <time>2019-07-13T15:09:10Z</time>
      </trkpt>
      <trkpt lat="50.851833782922" lon="5.698732523907">
        <ele>47.4</ele>
        <time>2019-07-13T15:09:33Z</time>
      </trkpt>
      <trkpt lat="50.851984405665" lon="5.69789324426">
        <ele>46.8</ele>
        <time>2019-07-13T15:09:54Z</time>
      </trkpt>
      <trkpt lat="50.851936377378" lon="5.697039799202">
        <ele>47.8</ele>
        <time>2019-07-13T15:10:21Z</time>
      </trkpt>
      <trkpt lat="50.85190184395" lon="5.696143857911">
        <ele>47</ele>
        <time>2019-07-13T15:10:42Z</time>
      </trkpt>
      <trkpt lat="50.851863035753" lon="5.69526132766">
        <ele>45.4</ele>
        <time>2019-07-13T15:10:55Z</time>
      </trkpt>
      <trkpt lat="50.851851133455" lon="5.694764951542">
        <ele>44.8</ele>
        <time>2019-07-13T15:11:01Z</time>
      </trkpt>
      <trkpt lat="50.851876195336" lon="5.694599660474">
        <ele>44.4</ele>
        <time>2019-07-13T15:11:03Z</time>
      </trkpt>
      <trkpt lat="50.852141147195" lon="5.693907483172">
        <ele>42.8</ele>
        <time>2019-07-13T15:11:14Z</time>
      </trkpt>
      <trkpt lat="50.85229076411" lon="5.693828944769">
        <ele>42.2</ele>
        <time>2019-07-13T15:11:18Z</time>
      </trkpt>
      <trkpt lat="50.852682869392" lon="5.693790890943">
        <ele>40.8</ele>
        <time>2019-07-13T15:11:35Z</time>
      </trkpt>
      <trkpt lat="50.85273249024" lon="5.693703803002">
        <ele>40.8</ele>
        <time>2019-07-13T15:11:46Z</time>
      </trkpt>
      <trkpt lat="50.852764592917" lon="5.693700450242">
        <ele>42.6</ele>
        <time>2019-07-13T15:11:58Z</time>
      </trkpt>
      <trkpt lat="50.852774567378" lon="5.693701036975">
        <ele>42.8</ele>
        <time>2019-07-13T15:11:59Z</time>
      </trkpt>
      <trkpt lat="50.852816979792" lon="5.693697684215">
        <ele>44</ele>
        <time>2019-07-13T15:12:04Z</time>
      </trkpt>
      <trkpt lat="50.853367083889" lon="5.693646554625">
        <ele>39.2</ele>
        <time>2019-07-13T15:12:30Z</time>
      </trkpt>
      <trkpt lat="50.853896317055" lon="5.693741186276">
        <ele>50</ele>
        <time>2019-07-13T15:12:58Z</time>
      </trkpt>
      <trkpt lat="50.853944680618" lon="5.6937157053">
        <ele>49.2</ele>
        <time>2019-07-13T15:13:04Z</time>
      </trkpt>
      <trkpt lat="50.854495539086" lon="5.69384227199">
        <ele>54</ele>
        <time>2019-07-13T15:13:25Z</time>
      </trkpt>
      <trkpt lat="50.855034830532" lon="5.69370983797">
        <ele>59.8</ele>
        <time>2019-07-13T15:13:42Z</time>
      </trkpt>
      <trkpt lat="50.855282348039" lon="5.692947839441">
        <ele>45.8</ele>
        <time>2019-07-13T15:14:00Z</time>
      </trkpt>
      <trkpt lat="50.855352504542" lon="5.69205944186">
        <ele>40.4</ele>
        <time>2019-07-13T15:14:14Z</time>
      </trkpt>
      <trkpt lat="50.855389049626" lon="5.691176157238">
        <ele>37.6</ele>
        <time>2019-07-13T15:14:36Z</time>
      </trkpt>
      <trkpt lat="50.855401706295" lon="5.690822776334">
        <ele>34</ele>
        <time>2019-07-13T15:14:46Z</time>
      </trkpt>
      <trkpt lat="50.855411177842" lon="5.690793691141">
        <ele>31.8</ele>
        <time>2019-07-13T15:14:49Z</time>
      </trkpt>
      <trkpt lat="50.855947116528" lon="5.690949510662">
        <ele>40.2</ele>
        <time>2019-07-13T15:15:13Z</time>
      </trkpt>
      <trkpt lat="50.856487916716" lon="5.690970297774">
        <ele>43.4</ele>
        <time>2019-07-13T15:15:32Z</time>
      </trkpt>
      <trkpt lat="50.856626134247" lon="5.690220453">
        <ele>40.2</ele>
        <time>2019-07-13T15:15:59Z</time>
      </trkpt>
      <trkpt lat="50.856624793143" lon="5.690199833526">
        <ele>42.2</ele>
        <time>2019-07-13T15:16:00Z</time>
      </trkpt>
      <trkpt lat="50.856607945524" lon="5.690188517961">
        <ele>49.8</ele>
        <time>2019-07-13T15:16:40Z</time>
      </trkpt>
      <trkpt lat="50.856643820056" lon="5.690171502704">
        <ele>49.8</ele>
        <time>2019-07-13T15:16:45Z</time>
      </trkpt>
      <trkpt lat="50.857186799538" lon="5.690189104694">
        <ele>50.2</ele>
        <time>2019-07-13T15:17:05Z</time>
      </trkpt>
      <trkpt lat="50.857711841754" lon="5.690341487636">
        <ele>48.6</ele>
        <time>2019-07-13T15:17:26Z</time>
      </trkpt>
      <trkpt lat="50.857786524483" lon="5.690376188702">
        <ele>47</ele>
        <time>2019-07-13T15:17:32Z</time>
      </trkpt>
      <trkpt lat="50.857785015741" lon="5.690381301661">
        <ele>46</ele>
        <time>2019-07-13T15:17:39Z</time>
      </trkpt>
      <trkpt lat="50.857808736518" lon="5.690383313317">
        <ele>46.2</ele>
        <time>2019-07-13T15:17:42Z</time>
      </trkpt>
      <trkpt lat="50.858347944145" lon="5.690256662808">
        <ele>47.2</ele>
        <time>2019-07-13T15:18:03Z</time>
      </trkpt>
      <trkpt lat="50.858883044641" lon="5.689951813105">
        <ele>48</ele>
        <time>2019-07-13T15:18:25Z</time>
      </trkpt>
      <trkpt lat="50.85943884843" lon="5.689801609457">
        <ele>48.2</ele>
        <time>2019-07-13T15:18:42Z</time>
      </trkpt>
      <trkpt lat="50.859936984747" lon="5.689767327486">
        <ele>47.8</ele>
        <time>2019-07-13T15:18:58Z</time>
      </trkpt>
      <trkpt lat="50.859947545941" lon="5.689774703558">
        <ele>47.8</ele>
        <time>2019-07-13T15:19:31Z</time>
      </trkpt>
      <trkpt lat="50.859987946699" lon="5.689743271433">
        <ele>47</ele>
        <time>2019-07-13T15:19:36Z</time>
      </trkpt>
      <trkpt lat="50.860134965225" lon="5.689515116115">
        <ele>44.8</ele>
        <time>2019-07-13T15:19:46Z</time>
      </trkpt>
      <trkpt lat="50.860132534474" lon="5.689501537437">
        <ele>44.6</ele>
        <time>2019-07-13T15:19:48Z</time>
      </trkpt>
      <trkpt lat="50.860113507561" lon="5.689455269349">
        <ele>44.8</ele>
        <time>2019-07-13T15:20:00Z</time>
      </trkpt>
      <trkpt lat="50.860038657194" lon="5.689220995244">
        <ele>45</ele>
        <time>2019-07-13T15:20:09Z</time>
      </trkpt>
      <trkpt lat="50.859950395787" lon="5.689184114884">
        <ele>45</ele>
        <time>2019-07-13T15:20:13Z</time>
      </trkpt>
      <trkpt lat="50.859800024501" lon="5.688352798042">
        <ele>45.6</ele>
        <time>2019-07-13T15:20:31Z</time>
      </trkpt>
      <trkpt lat="50.859372799058" lon="5.688112908064">
        <ele>44.6</ele>
        <time>2019-07-13T15:20:48Z</time>
      </trkpt>
      <trkpt lat="50.859096615453" lon="5.688164959663">
        <ele>45.2</ele>
        <time>2019-07-13T15:20:55Z</time>
      </trkpt>
      <trkpt lat="50.859023357647" lon="5.688100921947">
        <ele>45.6</ele>
        <time>2019-07-13T15:20:57Z</time>
      </trkpt>
      <trkpt lat="50.858967282736" lon="5.688002769898">
        <ele>44.8</ele>
        <time>2019-07-13T15:20:59Z</time>
      </trkpt>
      <trkpt lat="50.858799812374" lon="5.687174135264">
        <ele>42.2</ele>
        <time>2019-07-13T15:21:12Z</time>
      </trkpt>
      <trkpt lat="50.858658409721" lon="5.686600058933">
        <ele>43.2</ele>
        <time>2019-07-13T15:21:28Z</time>
      </trkpt>
      <trkpt lat="50.858659834644" lon="5.68640082117">
        <ele>44.4</ele>
        <time>2019-07-13T15:21:38Z</time>
      </trkpt>
      <trkpt lat="50.858627899605" lon="5.686229076039">
        <ele>44.8</ele>
        <time>2019-07-13T15:21:48Z</time>
      </trkpt>
      <trkpt lat="50.858486999866" lon="5.685393149152">
        <ele>47.2</ele>
        <time>2019-07-13T15:22:12Z</time>
      </trkpt>
      <trkpt lat="50.85833243763" lon="5.684564263061">
        <ele>46.4</ele>
        <time>2019-07-13T15:22:31Z</time>
      </trkpt>
      <trkpt lat="50.858260437109" lon="5.68420560156">
        <ele>45.6</ele>
        <time>2019-07-13T15:22:37Z</time>
      </trkpt>
      <trkpt lat="50.858160105766" lon="5.683814921201">
        <ele>44.6</ele>
        <time>2019-07-13T15:22:43Z</time>
      </trkpt>
      <trkpt lat="50.858128422184" lon="5.683676116937">
        <ele>44.2</ele>
        <time>2019-07-13T15:22:45Z</time>
      </trkpt>
      <trkpt lat="50.857813765658" lon="5.682881931912">
        <ele>42</ele>
        <time>2019-07-13T15:22:56Z</time>
      </trkpt>
      <trkpt lat="50.85750598229" lon="5.682124711066">
        <ele>42.2</ele>
        <time>2019-07-13T15:23:08Z</time>
      </trkpt>
      <trkpt lat="50.857358377031" lon="5.681740652408">
        <ele>43</ele>
        <time>2019-07-13T15:23:26Z</time>
      </trkpt>
      <trkpt lat="50.857024945049" lon="5.681041937224">
        <ele>44.2</ele>
        <time>2019-07-13T15:23:49Z</time>
      </trkpt>
      <trkpt lat="50.856652537232" lon="5.680459059898">
        <ele>44</ele>
        <time>2019-07-13T15:24:05Z</time>
      </trkpt>
      <trkpt lat="50.856622949125" lon="5.680408265584">
        <ele>43.8</ele>
        <time>2019-07-13T15:24:15Z</time>
      </trkpt>
      <trkpt lat="50.856486156517" lon="5.680217242083">
        <ele>44.6</ele>
        <time>2019-07-13T15:24:23Z</time>
      </trkpt>
      <trkpt lat="50.856187425601" lon="5.680567102589">
        <ele>42.2</ele>
        <time>2019-07-13T15:24:38Z</time>
      </trkpt>
      <trkpt lat="50.856247272367" lon="5.68056115144">
        <ele>47.6</ele>
        <time>2019-07-13T15:27:06Z</time>
      </trkpt>
      <trkpt lat="50.856212738939" lon="5.680665087">
        <ele>46</ele>
        <time>2019-07-13T15:27:14Z</time>
      </trkpt>
      <trkpt lat="50.855755925389" lon="5.681173700692">
        <ele>43.4</ele>
        <time>2019-07-13T15:27:29Z</time>
      </trkpt>
      <trkpt lat="50.855276564528" lon="5.681419374181">
        <ele>43.6</ele>
        <time>2019-07-13T15:27:44Z</time>
      </trkpt>
      <trkpt lat="50.855042793337" lon="5.682227892255">
        <ele>40.2</ele>
        <time>2019-07-13T15:28:00Z</time>
      </trkpt>
      <trkpt lat="50.85462344688" lon="5.68276642933">
        <ele>40.8</ele>
        <time>2019-07-13T15:28:16Z</time>
      </trkpt>
      <trkpt lat="50.854326979077" lon="5.683482578866">
        <ele>43.2</ele>
        <time>2019-07-13T15:28:31Z</time>
      </trkpt>
      <trkpt lat="50.854225222811" lon="5.68368843833">
        <ele>45.6</ele>
        <time>2019-07-13T15:28:39Z</time>
      </trkpt>
      <trkpt lat="50.854185157329" lon="5.683737723902">
        <ele>46.6</ele>
        <time>2019-07-13T15:29:05Z</time>
      </trkpt>
      <trkpt lat="50.854153306109" lon="5.683782064153">
        <ele>47</ele>
        <time>2019-07-13T15:29:10Z</time>
      </trkpt>
      <trkpt lat="50.854057836268" lon="5.684038634112">
        <ele>46.2</ele>
        <time>2019-07-13T15:29:17Z</time>
      </trkpt>
      <trkpt lat="50.854485061711" lon="5.684575997721">
        <ele>45.4</ele>
        <time>2019-07-13T15:29:32Z</time>
      </trkpt>
      <trkpt lat="50.854613137143" lon="5.684821252115">
        <ele>44</ele>
        <time>2019-07-13T15:29:44Z</time>
      </trkpt>
      <trkpt lat="50.854600396655" lon="5.68484597872">
        <ele>43.8</ele>
        <time>2019-07-13T15:29:54Z</time>
      </trkpt>
      <trkpt lat="50.8546301524" lon="5.684909764979">
        <ele>42.8</ele>
        <time>2019-07-13T15:30:00Z</time>
      </trkpt>
      <trkpt lat="50.854839951357" lon="5.685174800657">
        <ele>42.6</ele>
        <time>2019-07-13T15:30:12Z</time>
      </trkpt>
      <trkpt lat="50.854859397365" lon="5.685179326883">
        <ele>40.2</ele>
        <time>2019-07-13T15:31:15Z</time>
      </trkpt>
      <trkpt lat="50.854873143681" lon="5.685140015772">
        <ele>40.4</ele>
        <time>2019-07-13T15:31:18Z</time>
      </trkpt>
      <trkpt lat="50.85498638315" lon="5.68493901781">
        <ele>40.8</ele>
        <time>2019-07-13T15:31:25Z</time>
      </trkpt>
      <trkpt lat="50.855007505538" lon="5.684882356166">
        <ele>41.6</ele>
        <time>2019-07-13T15:31:27Z</time>
      </trkpt>
      <trkpt lat="50.855443615795" lon="5.68546875389">
        <ele>41.4</ele>
        <time>2019-07-13T15:31:46Z</time>
      </trkpt>
      <trkpt lat="50.855873523446" lon="5.686093121621">
        <ele>41.4</ele>
        <time>2019-07-13T15:32:00Z</time>
      </trkpt>
      <trkpt lat="50.856132021242" lon="5.686460835574">
        <ele>42</ele>
        <time>2019-07-13T15:32:08Z</time>
      </trkpt>
      <trkpt lat="50.856605179497" lon="5.686879762936">
        <ele>42.8</ele>
        <time>2019-07-13T15:32:24Z</time>
      </trkpt>
      <trkpt lat="50.857078673028" lon="5.687369852629">
        <ele>42.4</ele>
        <time>2019-07-13T15:32:37Z</time>
      </trkpt>
      <trkpt lat="50.857516543484" lon="5.68789615213">
        <ele>39.6</ele>
        <time>2019-07-13T15:32:49Z</time>
      </trkpt>
      <trkpt lat="50.857929687335" lon="5.688537870394">
        <ele>39.4</ele>
        <time>2019-07-13T15:33:02Z</time>
      </trkpt>
      <trkpt lat="50.858171169874" lon="5.689010190459">
        <ele>39.6</ele>
        <time>2019-07-13T15:33:16Z</time>
      </trkpt>
      <trkpt lat="50.858229424079" lon="5.68915511351">
        <ele>41.2</ele>
        <time>2019-07-13T15:34:07Z</time>
      </trkpt>
      <trkpt lat="50.858245349689" lon="5.689177241726">
        <ele>41.2</ele>
        <time>2019-07-13T15:34:09Z</time>
      </trkpt>
      <trkpt lat="50.858277703823" lon="5.689178666649">
        <ele>40.6</ele>
        <time>2019-07-13T15:34:11Z</time>
      </trkpt>
      <trkpt lat="50.858727560396" lon="5.688654797899">
        <ele>42.2</ele>
        <time>2019-07-13T15:34:32Z</time>
      </trkpt>
      <trkpt lat="50.858966863641" lon="5.68821801709">
        <ele>43.2</ele>
        <time>2019-07-13T15:34:44Z</time>
      </trkpt>
      <trkpt lat="50.85887726113" lon="5.687778637892">
        <ele>42.2</ele>
        <time>2019-07-13T15:34:51Z</time>
      </trkpt>
      <trkpt lat="50.858740719979" lon="5.686953607475">
        <ele>42</ele>
        <time>2019-07-13T15:35:02Z</time>
      </trkpt>
      <trkpt lat="50.858583475535" lon="5.686122374452">
        <ele>44</ele>
        <time>2019-07-13T15:35:22Z</time>
      </trkpt>
      <trkpt lat="50.858571489418" lon="5.686026317878">
        <ele>44.2</ele>
        <time>2019-07-13T15:35:25Z</time>
      </trkpt>
      <trkpt lat="50.858547768641" lon="5.685967560759">
        <ele>44.4</ele>
        <time>2019-07-13T15:35:27Z</time>
      </trkpt>
      <trkpt lat="50.858412820051" lon="5.685129789854">
        <ele>45.2</ele>
        <time>2019-07-13T15:35:51Z</time>
      </trkpt>
      <trkpt lat="50.858261526756" lon="5.684274081683">
        <ele>44.4</ele>
        <time>2019-07-13T15:36:08Z</time>
      </trkpt>
      <trkpt lat="50.858039406406" lon="5.683438406253">
        <ele>42.8</ele>
        <time>2019-07-13T15:36:20Z</time>
      </trkpt>
      <trkpt lat="50.857731287762" lon="5.682685879271">
        <ele>41.8</ele>
        <time>2019-07-13T15:36:31Z</time>
      </trkpt>
      <trkpt lat="50.857724330785" lon="5.682648831273">
        <ele>41.8</ele>
        <time>2019-07-13T15:36:32Z</time>
      </trkpt>
      <trkpt lat="50.857771520882" lon="5.682526371714">
        <ele>41</ele>
        <time>2019-07-13T15:36:38Z</time>
      </trkpt>
      <trkpt lat="50.857766827018" lon="5.682527461361">
        <ele>41.2</ele>
        <time>2019-07-13T15:36:47Z</time>
      </trkpt>
      <trkpt lat="50.857831367648" lon="5.682512290122">
        <ele>42.6</ele>
        <time>2019-07-13T15:36:56Z</time>
      </trkpt>
      <trkpt lat="50.858273093778" lon="5.681931675909">
        <ele>43.4</ele>
        <time>2019-07-13T15:37:09Z</time>
      </trkpt>
      <trkpt lat="50.858685567077" lon="5.681383164373">
        <ele>42.6</ele>
        <time>2019-07-13T15:37:23Z</time>
      </trkpt>
      <trkpt lat="50.858685231801" lon="5.6812937295">
        <ele>42.4</ele>
        <time>2019-07-13T15:37:25Z</time>
      </trkpt>
      <trkpt lat="50.85832154116" lon="5.680651927417">
        <ele>43.6</ele>
        <time>2019-07-13T15:37:42Z</time>
      </trkpt>
      <trkpt lat="50.857975620147" lon="5.679971400956">
        <ele>47.6</ele>
        <time>2019-07-13T15:38:03Z</time>
      </trkpt>
      <trkpt lat="50.857618970302" lon="5.679359689894">
        <ele>47</ele>
        <time>2019-07-13T15:38:21Z</time>
      </trkpt>
      <trkpt lat="50.857585358883" lon="5.679304956087">
        <ele>48</ele>
        <time>2019-07-13T15:38:38Z</time>
      </trkpt>
      <trkpt lat="50.857575384422" lon="5.679284671889">
        <ele>47.6</ele>
        <time>2019-07-13T15:38:39Z</time>
      </trkpt>
      <trkpt lat="50.85756297921" lon="5.679260783474">
        <ele>47.2</ele>
        <time>2019-07-13T15:38:42Z</time>
      </trkpt>
      <trkpt lat="50.857540264261" lon="5.679291042133">
        <ele>46.4</ele>
        <time>2019-07-13T15:38:56Z</time>
      </trkpt>
      <trkpt lat="50.857093425172" lon="5.679834524529">
        <ele>45</ele>
        <time>2019-07-13T15:39:14Z</time>
      </trkpt>
      <trkpt lat="50.857024190678" lon="5.679918930262">
        <ele>45.2</ele>
        <time>2019-07-13T15:39:16Z</time>
      </trkpt>
      <trkpt lat="50.85695696784" lon="5.680305000576">
        <ele>44.4</ele>
        <time>2019-07-13T15:39:26Z</time>
      </trkpt>
      <trkpt lat="50.856950429958" lon="5.680329727181">
        <ele>44.8</ele>
        <time>2019-07-13T15:40:27Z</time>
      </trkpt>
      <trkpt lat="50.856945316999" lon="5.680337103253">
        <ele>44.8</ele>
        <time>2019-07-13T15:40:28Z</time>
      </trkpt>
      <trkpt lat="50.856889493545" lon="5.680414887285">
        <ele>44.4</ele>
        <time>2019-07-13T15:40:33Z</time>
      </trkpt>
      <trkpt lat="50.85678681527" lon="5.680576574136">
        <ele>43.2</ele>
        <time>2019-07-13T15:40:39Z</time>
      </trkpt>
      <trkpt lat="50.857108261135" lon="5.68125852552">
        <ele>44.6</ele>
        <time>2019-07-13T15:40:56Z</time>
      </trkpt>
      <trkpt lat="50.857425935145" lon="5.682025134094">
        <ele>42.6</ele>
        <time>2019-07-13T15:41:08Z</time>
      </trkpt>
      <trkpt lat="50.857743776793" lon="5.6828024715">
        <ele>42</ele>
        <time>2019-07-13T15:41:19Z</time>
      </trkpt>
      <trkpt lat="50.858045273736" lon="5.683564218572">
        <ele>43.8</ele>
        <time>2019-07-13T15:41:33Z</time>
      </trkpt>
      <trkpt lat="50.858235291409" lon="5.684193112529">
        <ele>45.4</ele>
        <time>2019-07-13T15:41:49Z</time>
      </trkpt>
      <trkpt lat="50.858187849855" lon="5.683990438187">
        <ele>44.6</ele>
        <time>2019-07-13T15:41:57Z</time>
      </trkpt>
      <trkpt lat="50.858241242558" lon="5.684024217244">
        <ele>44.4</ele>
        <time>2019-07-13T15:42:01Z</time>
      </trkpt>
      <trkpt lat="50.858356493683" lon="5.684867352565">
        <ele>46.2</ele>
        <time>2019-07-13T15:42:23Z</time>
      </trkpt>
      <trkpt lat="50.858499907992" lon="5.685697915036">
        <ele>45.8</ele>
        <time>2019-07-13T15:42:38Z</time>
      </trkpt>
      <trkpt lat="50.858654805504" lon="5.686537865235">
        <ele>43.6</ele>
        <time>2019-07-13T15:42:47Z</time>
      </trkpt>
      <trkpt lat="50.858806182618" lon="5.687400530383">
        <ele>42</ele>
        <time>2019-07-13T15:42:55Z</time>
      </trkpt>
      <trkpt lat="50.85893677262" lon="5.688093210599">
        <ele>43</ele>
        <time>2019-07-13T15:43:03Z</time>
      </trkpt>
      <trkpt lat="50.85895437461" lon="5.688284988471">
        <ele>43.2</ele>
        <time>2019-07-13T15:43:06Z</time>
      </trkpt>
      <trkpt lat="50.859040875818" lon="5.68830602704">
        <ele>43.2</ele>
        <time>2019-07-13T15:43:09Z</time>
      </trkpt>
      <trkpt lat="50.858978095387" lon="5.688216424529">
        <ele>42</ele>
        <time>2019-07-13T15:43:13Z</time>
      </trkpt>
      <trkpt lat="50.858569310124" lon="5.688853281291">
        <ele>40.4</ele>
        <time>2019-07-13T15:43:26Z</time>
      </trkpt>
      <trkpt lat="50.858133702781" lon="5.68943674535">
        <ele>40</ele>
        <time>2019-07-13T15:43:37Z</time>
      </trkpt>
      <trkpt lat="50.858040076958" lon="5.689487623483">
        <ele>40.4</ele>
        <time>2019-07-13T15:43:40Z</time>
      </trkpt>
      <trkpt lat="50.858021888235" lon="5.689395925497">
        <ele>40.8</ele>
        <time>2019-07-13T15:43:42Z</time>
      </trkpt>
      <trkpt lat="50.857699185085" lon="5.688714477027">
        <ele>41.6</ele>
        <time>2019-07-13T15:43:58Z</time>
      </trkpt>
      <trkpt lat="50.857297692075" lon="5.688123217801">
        <ele>41.2</ele>
        <time>2019-07-13T15:44:13Z</time>
      </trkpt>
      <trkpt lat="50.856894187409" lon="5.687534724602">
        <ele>41.6</ele>
        <time>2019-07-13T15:44:28Z</time>
      </trkpt>
      <trkpt lat="50.856463441568" lon="5.686948326878">
        <ele>40.4</ele>
        <time>2019-07-13T15:44:42Z</time>
      </trkpt>
      <trkpt lat="50.856051387364" lon="5.686340639128">
        <ele>42</ele>
        <time>2019-07-13T15:44:58Z</time>
      </trkpt>
      <trkpt lat="50.855655342589" lon="5.685760946924">
        <ele>40.2</ele>
        <time>2019-07-13T15:45:12Z</time>
      </trkpt>
      <trkpt lat="50.855230966992" lon="5.685159797056">
        <ele>41.4</ele>
        <time>2019-07-13T15:45:28Z</time>
      </trkpt>
      <trkpt lat="50.854829809258" lon="5.684576500635">
        <ele>40.8</ele>
        <time>2019-07-13T15:45:43Z</time>
      </trkpt>
      <trkpt lat="50.854441727288" lon="5.683949450696">
        <ele>41.2</ele>
        <time>2019-07-13T15:45:59Z</time>
      </trkpt>
      <trkpt lat="50.854709445174" lon="5.683177561525">
        <ele>41.6</ele>
        <time>2019-07-13T15:46:14Z</time>
      </trkpt>
      <trkpt lat="50.855061904069" lon="5.682512876855">
        <ele>41.8</ele>
        <time>2019-07-13T15:46:33Z</time>
      </trkpt>
      <trkpt lat="50.855509078434" lon="5.681991271218">
        <ele>40.6</ele>
        <time>2019-07-13T15:46:50Z</time>
      </trkpt>
      <trkpt lat="50.855673866588" lon="5.681638644685">
        <ele>41.8</ele>
        <time>2019-07-13T15:47:00Z</time>
      </trkpt>
      <trkpt lat="50.855673782769" lon="5.681631100975">
        <ele>42</ele>
        <time>2019-07-13T15:47:01Z</time>
      </trkpt>
      <trkpt lat="50.855668418353" lon="5.681625149826">
        <ele>42</ele>
        <time>2019-07-13T15:47:06Z</time>
      </trkpt>
      <trkpt lat="50.855650313449" lon="5.681593047149">
        <ele>42.6</ele>
        <time>2019-07-13T15:47:09Z</time>
      </trkpt>
      <trkpt lat="50.855321072417" lon="5.681357934854">
        <ele>45.2</ele>
        <time>2019-07-13T15:47:27Z</time>
      </trkpt>
      <trkpt lat="50.855528943537" lon="5.680578250516">
        <ele>46.8</ele>
        <time>2019-07-13T15:47:51Z</time>
      </trkpt>
      <trkpt lat="50.855870254505" lon="5.679853132347">
        <ele>49.2</ele>
        <time>2019-07-13T15:48:07Z</time>
      </trkpt>
      <trkpt lat="50.856122046781" lon="5.679273943057">
        <ele>47.4</ele>
        <time>2019-07-13T15:48:19Z</time>
      </trkpt>
      <trkpt lat="50.856470650002" lon="5.679991349878">
        <ele>46.6</ele>
        <time>2019-07-13T15:48:34Z</time>
      </trkpt>
      <trkpt lat="50.856522617782" lon="5.680244734715">
        <ele>45.8</ele>
        <time>2019-07-13T15:48:42Z</time>
      </trkpt>
      <trkpt lat="50.856523539791" lon="5.680239789394">
        <ele>45.8</ele>
        <time>2019-07-13T15:49:04Z</time>
      </trkpt>
      <trkpt lat="50.856526305818" lon="5.68024431562">
        <ele>45.8</ele>
        <time>2019-07-13T15:49:08Z</time>
      </trkpt>
      <trkpt lat="50.856525383809" lon="5.680241884869">
        <ele>45.6</ele>
        <time>2019-07-13T15:49:33Z</time>
      </trkpt>
      <trkpt lat="50.856530412949" lon="5.680249428579">
        <ele>45.6</ele>
        <time>2019-07-13T15:49:35Z</time>
      </trkpt>
      <trkpt lat="50.856922937326" lon="5.680851668094">
        <ele>45.6</ele>
        <time>2019-07-13T15:49:56Z</time>
      </trkpt>
      <trkpt lat="50.857263158647" lon="5.681557172617">
        <ele>44.8</ele>
        <time>2019-07-13T15:50:14Z</time>
      </trkpt>
      <trkpt lat="50.857558872079" lon="5.682300479509">
        <ele>42.8</ele>
        <time>2019-07-13T15:50:26Z</time>
      </trkpt>
      <trkpt lat="50.857851987122" lon="5.683024005117">
        <ele>43</ele>
        <time>2019-07-13T15:50:37Z</time>
      </trkpt>
      <trkpt lat="50.858146275631" lon="5.683770664769">
        <ele>45</ele>
        <time>2019-07-13T15:50:53Z</time>
      </trkpt>
      <trkpt lat="50.85827041157" lon="5.684272908217">
        <ele>46.2</ele>
        <time>2019-07-13T15:51:04Z</time>
      </trkpt>
      <trkpt lat="50.858346770679" lon="5.68433803558">
        <ele>46.6</ele>
        <time>2019-07-13T15:51:08Z</time>
      </trkpt>
      <trkpt lat="50.85859898205" lon="5.685093999141">
        <ele>47.8</ele>
        <time>2019-07-13T15:51:27Z</time>
      </trkpt>
      <trkpt lat="50.858833591431" lon="5.685898410084">
        <ele>49.4</ele>
        <time>2019-07-13T15:51:49Z</time>
      </trkpt>
      <trkpt lat="50.858867789583" lon="5.686015589046">
        <ele>49.6</ele>
        <time>2019-07-13T15:51:53Z</time>
      </trkpt>
      <trkpt lat="50.858885726849" lon="5.686071915414">
        <ele>49.8</ele>
        <time>2019-07-13T15:51:55Z</time>
      </trkpt>
      <trkpt lat="50.858889247247" lon="5.686134779664">
        <ele>49.8</ele>
        <time>2019-07-13T15:51:57Z</time>
      </trkpt>
      <trkpt lat="50.858916488422" lon="5.686219436854">
        <ele>50</ele>
        <time>2019-07-13T15:52:00Z</time>
      </trkpt>
      <trkpt lat="50.858932330213" lon="5.686273081014">
        <ele>50</ele>
        <time>2019-07-13T15:52:02Z</time>
      </trkpt>
      <trkpt lat="50.85897700574" lon="5.686410376536">
        <ele>50.2</ele>
        <time>2019-07-13T15:52:07Z</time>
      </trkpt>
      <trkpt lat="50.859177081693" lon="5.687228785252">
        <ele>51.6</ele>
        <time>2019-07-13T15:52:31Z</time>
      </trkpt>
      <trkpt lat="50.859333068852" lon="5.688075440971">
        <ele>52.2</ele>
        <time>2019-07-13T15:52:53Z</time>
      </trkpt>
      <trkpt lat="50.859440943905" lon="5.688925030355">
        <ele>51.6</ele>
        <time>2019-07-13T15:53:11Z</time>
      </trkpt>
      <trkpt lat="50.859529289131" lon="5.689774200644">
        <ele>51</ele>
        <time>2019-07-13T15:53:28Z</time>
      </trkpt>
      <trkpt lat="50.859612605217" lon="5.690637536344">
        <ele>51.2</ele>
        <time>2019-07-13T15:53:46Z</time>
      </trkpt>
      <trkpt lat="50.859668093395" lon="5.691486874271">
        <ele>51.4</ele>
        <time>2019-07-13T15:54:03Z</time>
      </trkpt>
      <trkpt lat="50.859702794461" lon="5.692383234657">
        <ele>51.2</ele>
        <time>2019-07-13T15:54:19Z</time>
      </trkpt>
      <trkpt lat="50.859731795835" lon="5.693254784619">
        <ele>50.8</ele>
        <time>2019-07-13T15:54:35Z</time>
      </trkpt>
      <trkpt lat="50.859762222132" lon="5.694121808355">
        <ele>50.2</ele>
        <time>2019-07-13T15:54:50Z</time>
      </trkpt>
      <trkpt lat="50.859809663686" lon="5.694978438535">
        <ele>50</ele>
        <time>2019-07-13T15:55:05Z</time>
      </trkpt>
      <trkpt lat="50.859870097185" lon="5.695833895249">
        <ele>49.8</ele>
        <time>2019-07-13T15:55:22Z</time>
      </trkpt>
      <trkpt lat="50.859895159066" lon="5.69673738025">
        <ele>49.6</ele>
        <time>2019-07-13T15:55:39Z</time>
      </trkpt>
      <trkpt lat="50.8599191313" lon="5.697622005976">
        <ele>49.4</ele>
        <time>2019-07-13T15:55:54Z</time>
      </trkpt>
      <trkpt lat="50.859940840421" lon="5.698501434924">
        <ele>49.2</ele>
        <time>2019-07-13T15:56:10Z</time>
      </trkpt>
      <trkpt lat="50.859973865107" lon="5.699361669321">
        <ele>49</ele>
        <time>2019-07-13T15:56:24Z</time>
      </trkpt>
      <trkpt lat="50.860013092399" lon="5.70023179436">
        <ele>47.4</ele>
        <time>2019-07-13T15:56:36Z</time>
      </trkpt>
      <trkpt lat="50.860077884486" lon="5.701114156973">
        <ele>45.6</ele>
        <time>2019-07-13T15:56:46Z</time>
      </trkpt>
      <trkpt lat="50.860138066528" lon="5.702382757538">
        <ele>42.8</ele>
        <time>2019-07-13T15:57:00Z</time>
      </trkpt>
      <trkpt lat="50.860177126182" lon="5.703035456091">
        <ele>41.6</ele>
        <time>2019-07-13T15:57:13Z</time>
      </trkpt>
      <trkpt lat="50.860181820046" lon="5.703081724179">
        <ele>41.6</ele>
        <time>2019-07-13T15:57:18Z</time>
      </trkpt>
      <trkpt lat="50.860208893583" lon="5.703381628561">
        <ele>41.8</ele>
        <time>2019-07-13T15:57:27Z</time>
      </trkpt>
      <trkpt lat="50.859808406401" lon="5.703036294281">
        <ele>40.6</ele>
        <time>2019-07-13T15:57:42Z</time>
      </trkpt>
      <trkpt lat="50.859804131632" lon="5.702905033727">
        <ele>40.4</ele>
        <time>2019-07-13T15:57:44Z</time>
      </trkpt>
      <trkpt lat="50.859816955939" lon="5.702772767345">
        <ele>40.2</ele>
        <time>2019-07-13T15:57:46Z</time>
      </trkpt>
      <trkpt lat="50.859920053309" lon="5.701916388622">
        <ele>39.8</ele>
        <time>2019-07-13T15:57:59Z</time>
      </trkpt>
      <trkpt lat="50.859826595124" lon="5.701022039892">
        <ele>39.2</ele>
        <time>2019-07-13T15:58:14Z</time>
      </trkpt>
      <trkpt lat="50.859777980104" lon="5.700864460172">
        <ele>39.2</ele>
        <time>2019-07-13T15:58:18Z</time>
      </trkpt>
      <trkpt lat="50.859745458332" lon="5.700865885095">
        <ele>39.6</ele>
        <time>2019-07-13T15:58:20Z</time>
      </trkpt>
      <trkpt lat="50.859702207728" lon="5.700828334183">
        <ele>39.8</ele>
        <time>2019-07-13T15:58:23Z</time>
      </trkpt>
      <trkpt lat="50.85962325023" lon="5.700454585262">
        <ele>39.6</ele>
        <time>2019-07-13T15:58:33Z</time>
      </trkpt>
      <trkpt lat="50.85930306165" lon="5.700671257377">
        <ele>43</ele>
        <time>2019-07-13T15:58:52Z</time>
      </trkpt>
      <trkpt lat="50.859375565085" lon="5.700670838282">
        <ele>46.6</ele>
        <time>2019-07-13T15:59:26Z</time>
      </trkpt>
      <trkpt lat="50.859330554282" lon="5.700495405115">
        <ele>46</ele>
        <time>2019-07-13T16:17:42Z</time>
      </trkpt>
      <trkpt lat="50.859237012278" lon="5.700411334658">
        <ele>42.8</ele>
        <time>2019-07-13T16:17:47Z</time>
      </trkpt>
      <trkpt lat="50.858691602045" lon="5.700473276899">
        <ele>37.6</ele>
        <time>2019-07-13T16:18:05Z</time>
      </trkpt>
      <trkpt lat="50.858572243789" lon="5.700412424305">
        <ele>39</ele>
        <time>2019-07-13T16:18:10Z</time>
      </trkpt>
      <trkpt lat="50.858539135284" lon="5.700447460647">
        <ele>39</ele>
        <time>2019-07-13T16:18:12Z</time>
      </trkpt>
      <trkpt lat="50.859066356794" lon="5.700431535037">
        <ele>40.2</ele>
        <time>2019-07-13T16:18:29Z</time>
      </trkpt>
      <trkpt lat="50.859610258285" lon="5.700441006584">
        <ele>41.6</ele>
        <time>2019-07-13T16:18:45Z</time>
      </trkpt>
      <trkpt lat="50.859730370912" lon="5.700325420183">
        <ele>40.6</ele>
        <time>2019-07-13T16:18:51Z</time>
      </trkpt>
      <trkpt lat="50.859706147221" lon="5.699548250415">
        <ele>41</ele>
        <time>2019-07-13T16:19:05Z</time>
      </trkpt>
      <trkpt lat="50.859635739261" lon="5.699287740963">
        <ele>41</ele>
        <time>2019-07-13T16:19:09Z</time>
      </trkpt>
      <trkpt lat="50.859593410666" lon="5.699117253117">
        <ele>41.2</ele>
        <time>2019-07-13T16:19:15Z</time>
      </trkpt>
      <trkpt lat="50.859110780864" lon="5.698704695999">
        <ele>40</ele>
        <time>2019-07-13T16:19:33Z</time>
      </trkpt>
      <trkpt lat="50.858559335663" lon="5.698705869465">
        <ele>39</ele>
        <time>2019-07-13T16:19:45Z</time>
      </trkpt>
      <trkpt lat="50.858266639715" lon="5.698770913009">
        <ele>38.4</ele>
        <time>2019-07-13T16:19:58Z</time>
      </trkpt>
      <trkpt lat="50.858107132158" lon="5.698823886617">
        <ele>38.6</ele>
        <time>2019-07-13T16:20:07Z</time>
      </trkpt>
      <trkpt lat="50.857980733106" lon="5.698940395027">
        <ele>39</ele>
        <time>2019-07-13T16:20:14Z</time>
      </trkpt>
      <trkpt lat="50.857423588213" lon="5.699110212321">
        <ele>40.2</ele>
        <time>2019-07-13T16:20:32Z</time>
      </trkpt>
      <trkpt lat="50.856887146613" lon="5.699287824782">
        <ele>39</ele>
        <time>2019-07-13T16:20:50Z</time>
      </trkpt>
      <trkpt lat="50.856703666822" lon="5.699299978537">
        <ele>39</ele>
        <time>2019-07-13T16:20:57Z</time>
      </trkpt>
      <trkpt lat="50.856706768125" lon="5.699121695524">
        <ele>40.4</ele>
        <time>2019-07-13T16:21:10Z</time>
      </trkpt>
      <trkpt lat="50.856765273787" lon="5.69913125089">
        <ele>40.2</ele>
        <time>2019-07-13T16:21:15Z</time>
      </trkpt>
      <trkpt lat="50.856764100321" lon="5.699131753804">
        <ele>40.4</ele>
        <time>2019-07-13T16:21:30Z</time>
      </trkpt>
      <trkpt lat="50.85676502233" lon="5.699129323053">
        <ele>40.2</ele>
        <time>2019-07-13T16:21:33Z</time>
      </trkpt>
      <trkpt lat="50.856766866348" lon="5.699127562854">
        <ele>40.4</ele>
        <time>2019-07-13T16:21:40Z</time>
      </trkpt>
      <trkpt lat="50.85678262432" lon="5.699103422982">
        <ele>40.4</ele>
        <time>2019-07-13T16:21:45Z</time>
      </trkpt>
      <trkpt lat="50.856852780823" lon="5.699056484342">
        <ele>40</ele>
        <time>2019-07-13T16:21:50Z</time>
      </trkpt>
      <trkpt lat="50.85684884133" lon="5.698964367261">
        <ele>39.8</ele>
        <time>2019-07-13T16:21:53Z</time>
      </trkpt>
      <trkpt lat="50.85735175533" lon="5.69864929164">
        <ele>39.6</ele>
        <time>2019-07-13T16:22:10Z</time>
      </trkpt>
      <trkpt lat="50.857350665683" lon="5.698499171811">
        <ele>40.2</ele>
        <time>2019-07-13T16:22:14Z</time>
      </trkpt>
      <trkpt lat="50.856831406978" lon="5.698268082828">
        <ele>41.4</ele>
        <time>2019-07-13T16:22:32Z</time>
      </trkpt>
      <trkpt lat="50.856412228159" lon="5.698105976882">
        <ele>41.8</ele>
        <time>2019-07-13T16:22:45Z</time>
      </trkpt>
      <trkpt lat="50.856375934532" lon="5.698090386548">
        <ele>42</ele>
        <time>2019-07-13T16:22:46Z</time>
      </trkpt>
      <trkpt lat="50.855839073837" lon="5.697872540967">
        <ele>43.6</ele>
        <time>2019-07-13T16:23:02Z</time>
      </trkpt>
      <trkpt lat="50.854841627737" lon="5.697501725711">
        <ele>43.6</ele>
        <time>2019-07-13T16:23:33Z</time>
      </trkpt>
      <trkpt lat="50.854302336291" lon="5.697392928649">
        <ele>43</ele>
        <time>2019-07-13T16:23:50Z</time>
      </trkpt>
      <trkpt lat="50.85373245091" lon="5.697317826825">
        <ele>42.6</ele>
        <time>2019-07-13T16:24:06Z</time>
      </trkpt>
      <trkpt lat="50.853263148329" lon="5.697271726375">
        <ele>42.2</ele>
        <time>2019-07-13T16:24:19Z</time>
      </trkpt>
      <trkpt lat="50.85320020026" lon="5.697297039713">
        <ele>42.2</ele>
        <time>2019-07-13T16:24:21Z</time>
      </trkpt>
      <trkpt lat="50.853138006562" lon="5.697262506285">
        <ele>42.2</ele>
        <time>2019-07-13T16:24:23Z</time>
      </trkpt>
      <trkpt lat="50.852573904692" lon="5.697302739405">
        <ele>41.8</ele>
        <time>2019-07-13T16:24:38Z</time>
      </trkpt>
      <trkpt lat="50.852033020685" lon="5.69738949207">
        <ele>42</ele>
        <time>2019-07-13T16:24:52Z</time>
      </trkpt>
      <trkpt lat="50.851480318199" lon="5.697453865062">
        <ele>42.4</ele>
        <time>2019-07-13T16:25:07Z</time>
      </trkpt>
      <trkpt lat="50.850942284038" lon="5.697514550018">
        <ele>44</ele>
        <time>2019-07-13T16:25:24Z</time>
      </trkpt>
      <trkpt lat="50.85091110337" lon="5.697521255538">
        <ele>43.8</ele>
        <time>2019-07-13T16:25:26Z</time>
      </trkpt>
      <trkpt lat="50.850871792259" lon="5.697493008535">
        <ele>43.8</ele>
        <time>2019-07-13T16:25:29Z</time>
      </trkpt>
      <trkpt lat="50.850876821399" lon="5.697449925569">
        <ele>43.2</ele>
        <time>2019-07-13T16:25:31Z</time>
      </trkpt>
      <trkpt lat="50.850922670392" lon="5.697415224503">
        <ele>42.6</ele>
        <time>2019-07-13T16:25:34Z</time>
      </trkpt>
      <trkpt lat="50.850945552979" lon="5.697437939452">
        <ele>43</ele>
        <time>2019-07-13T16:25:36Z</time>
      </trkpt>
      <trkpt lat="50.850953348146" lon="5.697499546417">
        <ele>43.6</ele>
        <time>2019-07-13T16:25:39Z</time>
      </trkpt>
      <trkpt lat="50.850507263428" lon="5.697479681314">
        <ele>43</ele>
        <time>2019-07-13T16:25:58Z</time>
      </trkpt>
      <trkpt lat="50.850459402779" lon="5.697491918888">
        <ele>42.2</ele>
        <time>2019-07-13T16:26:00Z</time>
      </trkpt>
      <trkpt lat="50.850425958998" lon="5.698349722534">
        <ele>43.4</ele>
        <time>2019-07-13T16:26:18Z</time>
      </trkpt>
      <trkpt lat="50.850448003395" lon="5.698405881264">
        <ele>45.4</ele>
        <time>2019-07-13T16:26:20Z</time>
      </trkpt>
      <trkpt lat="50.850426461912" lon="5.698457765225">
        <ele>44.4</ele>
        <time>2019-07-13T16:26:25Z</time>
      </trkpt>
      <trkpt lat="50.850399639832" lon="5.698481150726">
        <ele>45.4</ele>
        <time>2019-07-13T16:26:29Z</time>
      </trkpt>
      <trkpt lat="50.849857330902" lon="5.69845818432">
        <ele>57</ele>
        <time>2019-07-13T16:26:49Z</time>
      </trkpt>
      <trkpt lat="50.849728249642" lon="5.698456088845">
        <ele>60.6</ele>
        <time>2019-07-13T16:26:53Z</time>
      </trkpt>
      <trkpt lat="50.849557007425" lon="5.698481402183">
        <ele>54.6</ele>
        <time>2019-07-13T16:27:07Z</time>
      </trkpt>
      <trkpt lat="50.849514092097" lon="5.698372186026">
        <ele>49.6</ele>
        <time>2019-07-13T16:27:10Z</time>
      </trkpt>
      <trkpt lat="50.849468075466" lon="5.697495606924">
        <ele>43.4</ele>
        <time>2019-07-13T16:27:33Z</time>
      </trkpt>
      <trkpt lat="50.849470003303" lon="5.697294357505">
        <ele>46.6</ele>
        <time>2019-07-13T16:27:40Z</time>
      </trkpt>
      <trkpt lat="50.849463465421" lon="5.697286981433">
        <ele>47.4</ele>
        <time>2019-07-13T16:28:00Z</time>
      </trkpt>
      <trkpt lat="50.849462124317" lon="5.697273570393">
        <ele>47.8</ele>
        <time>2019-07-13T16:28:03Z</time>
      </trkpt>
      <trkpt lat="50.849442007757" lon="5.69641132434">
        <ele>47.4</ele>
        <time>2019-07-13T16:28:22Z</time>
      </trkpt>
      <trkpt lat="50.849411246184" lon="5.695529883736">
        <ele>47.4</ele>
        <time>2019-07-13T16:28:42Z</time>
      </trkpt>
      <trkpt lat="50.849383418276" lon="5.694644922734">
        <ele>45.4</ele>
        <time>2019-07-13T16:28:59Z</time>
      </trkpt>
      <trkpt lat="50.849356009463" lon="5.694323476869">
        <ele>43.8</ele>
        <time>2019-07-13T16:29:09Z</time>
      </trkpt>
      <trkpt lat="50.849018135074" lon="5.694330601484">
        <ele>42.8</ele>
        <time>2019-07-13T16:29:22Z</time>
      </trkpt>
      <trkpt lat="50.848953845901" lon="5.694442583668">
        <ele>42.6</ele>
        <time>2019-07-13T16:29:24Z</time>
      </trkpt>
      <trkpt lat="50.848689229318" lon="5.694751540502">
        <ele>42.2</ele>
        <time>2019-07-13T16:29:31Z</time>
      </trkpt>
      <trkpt lat="50.848155721383" lon="5.694930410248">
        <ele>39.8</ele>
        <time>2019-07-13T16:29:44Z</time>
      </trkpt>
      <trkpt lat="50.84790116308" lon="5.695007020814">
        <ele>41.6</ele>
        <time>2019-07-13T16:29:54Z</time>
      </trkpt>
      <trkpt lat="50.847894876655" lon="5.695007607547">
        <ele>43.2</ele>
        <time>2019-07-13T16:29:59Z</time>
      </trkpt>
      <trkpt lat="50.847849362938" lon="5.695010876488">
        <ele>45.4</ele>
        <time>2019-07-13T16:30:06Z</time>
      </trkpt>
      <trkpt lat="50.847292301864" lon="5.6948724075">
        <ele>48.4</ele>
        <time>2019-07-13T16:30:29Z</time>
      </trkpt>
      <trkpt lat="50.847184845906" lon="5.69485396732">
        <ele>48</ele>
        <time>2019-07-13T16:30:33Z</time>
      </trkpt>
      <trkpt lat="50.847137488171" lon="5.693993397647">
        <ele>42</ele>
        <time>2019-07-13T16:30:51Z</time>
      </trkpt>
      <trkpt lat="50.847154251971" lon="5.693144814091">
        <ele>39</ele>
        <time>2019-07-13T16:31:09Z</time>
      </trkpt>
      <trkpt lat="50.847161963319" lon="5.692915569126">
        <ele>40.6</ele>
        <time>2019-07-13T16:31:16Z</time>
      </trkpt>
      <trkpt lat="50.8470529148" lon="5.692822110941">
        <ele>43.2</ele>
        <time>2019-07-13T16:31:24Z</time>
      </trkpt>
      <trkpt lat="50.846886282628" lon="5.69200495951">
        <ele>53</ele>
        <time>2019-07-13T16:31:46Z</time>
      </trkpt>
      <trkpt lat="50.846714453678" lon="5.691143467828">
        <ele>49.4</ele>
        <time>2019-07-13T16:32:05Z</time>
      </trkpt>
      <trkpt lat="50.846574559767" lon="5.690308630588">
        <ele>43.8</ele>
        <time>2019-07-13T16:32:20Z</time>
      </trkpt>
      <trkpt lat="50.846038285805" lon="5.690130431394">
        <ele>55.4</ele>
        <time>2019-07-13T16:32:43Z</time>
      </trkpt>
      <trkpt lat="50.845712313714" lon="5.690451458164">
        <ele>48.4</ele>
        <time>2019-07-13T16:32:58Z</time>
      </trkpt>
      <trkpt lat="50.845293218714" lon="5.689931948002">
        <ele>51.2</ele>
        <time>2019-07-13T16:33:18Z</time>
      </trkpt>
      <trkpt lat="50.845070846907" lon="5.689146899248">
        <ele>48.2</ele>
        <time>2019-07-13T16:33:38Z</time>
      </trkpt>
      <trkpt lat="50.844965654062" lon="5.688711040448">
        <ele>42.6</ele>
        <time>2019-07-13T16:33:50Z</time>
      </trkpt>
      <trkpt lat="50.844950482823" lon="5.688711124267">
        <ele>42.6</ele>
        <time>2019-07-13T16:33:53Z</time>
      </trkpt>
      <trkpt lat="50.84490882478" lon="5.688725792592">
        <ele>44.2</ele>
        <time>2019-07-13T16:33:58Z</time>
      </trkpt>
      <trkpt lat="50.844372047904" lon="5.688978842153">
        <ele>47.2</ele>
        <time>2019-07-13T16:34:16Z</time>
      </trkpt>
      <trkpt lat="50.844111873728" lon="5.689130638362">
        <ele>45.8</ele>
        <time>2019-07-13T16:34:25Z</time>
      </trkpt>
      <trkpt lat="50.844162919499" lon="5.689978886642">
        <ele>44.2</ele>
        <time>2019-07-13T16:34:43Z</time>
      </trkpt>
      <trkpt lat="50.844204409904" lon="5.690301254516">
        <ele>44.2</ele>
        <time>2019-07-13T16:34:53Z</time>
      </trkpt>
      <trkpt lat="50.844230309975" lon="5.691117986852">
        <ele>47.2</ele>
        <time>2019-07-13T16:35:12Z</time>
      </trkpt>
      <trkpt lat="50.843794367356" lon="5.690936518717">
        <ele>54.6</ele>
        <time>2019-07-13T16:35:35Z</time>
      </trkpt>
      <trkpt lat="50.843866786972" lon="5.69007460794">
        <ele>51.8</ele>
        <time>2019-07-13T16:35:53Z</time>
      </trkpt>
      <trkpt lat="50.84377475371" lon="5.689198280295">
        <ele>46</ele>
        <time>2019-07-13T16:36:12Z</time>
      </trkpt>
      <trkpt lat="50.843750278562" lon="5.688340476649">
        <ele>44</ele>
        <time>2019-07-13T16:36:30Z</time>
      </trkpt>
      <trkpt lat="50.843839210521" lon="5.687475967483">
        <ele>44.2</ele>
        <time>2019-07-13T16:36:47Z</time>
      </trkpt>
      <trkpt lat="50.843866619334" lon="5.686613553792">
        <ele>45.6</ele>
        <time>2019-07-13T16:37:06Z</time>
      </trkpt>
      <trkpt lat="50.843868044257" lon="5.685946689828">
        <ele>48.4</ele>
        <time>2019-07-13T16:37:26Z</time>
      </trkpt>
      <trkpt lat="50.844045824356" lon="5.685149152043">
        <ele>49</ele>
        <time>2019-07-13T16:37:47Z</time>
      </trkpt>
      <trkpt lat="50.84395580275" lon="5.684697367633">
        <ele>51.8</ele>
        <time>2019-07-13T16:38:03Z</time>
      </trkpt>
      <trkpt lat="50.843948426678" lon="5.684653111201">
        <ele>52.6</ele>
        <time>2019-07-13T16:38:08Z</time>
      </trkpt>
      <trkpt lat="50.843882628763" lon="5.68442101639">
        <ele>54</ele>
        <time>2019-07-13T16:38:20Z</time>
      </trkpt>
      <trkpt lat="50.843876426157" lon="5.684359744701">
        <ele>53.6</ele>
        <time>2019-07-13T16:38:23Z</time>
      </trkpt>
      <trkpt lat="50.843785398723" lon="5.684149275192">
        <ele>52</ele>
        <time>2019-07-13T16:38:32Z</time>
      </trkpt>
      <trkpt lat="50.843757738453" lon="5.684149191373">
        <ele>53</ele>
        <time>2019-07-13T16:38:34Z</time>
      </trkpt>
      <trkpt lat="50.843502593417" lon="5.684266370335">
        <ele>50.8</ele>
        <time>2019-07-13T16:38:45Z</time>
      </trkpt>
      <trkpt lat="50.843517513199" lon="5.684656966875">
        <ele>50.4</ele>
        <time>2019-07-13T16:38:56Z</time>
      </trkpt>
      <trkpt lat="50.843862428384" lon="5.685263145883">
        <ele>47.6</ele>
        <time>2019-07-13T16:39:21Z</time>
      </trkpt>
      <trkpt lat="50.843943313719" lon="5.685304384831">
        <ele>49.8</ele>
        <time>2019-07-13T16:39:38Z</time>
      </trkpt>
      <trkpt lat="50.843956557121" lon="5.685418211033">
        <ele>50.2</ele>
        <time>2019-07-13T16:39:43Z</time>
      </trkpt>
      <trkpt lat="50.843946498841" lon="5.685574030554">
        <ele>48.6</ele>
        <time>2019-07-13T16:39:49Z</time>
      </trkpt>
      <trkpt lat="50.84396586103" lon="5.685601858462">
        <ele>48.4</ele>
        <time>2019-07-13T16:39:51Z</time>
      </trkpt>
      <trkpt lat="50.843989497988" lon="5.685652736595">
        <ele>48.6</ele>
        <time>2019-07-13T16:40:37Z</time>
      </trkpt>
      <trkpt lat="50.843965274297" lon="5.685735130672">
        <ele>46.6</ele>
        <time>2019-07-13T16:40:43Z</time>
      </trkpt>
      <trkpt lat="50.843885478609" lon="5.685908636002">
        <ele>44.8</ele>
        <time>2019-07-13T16:40:49Z</time>
      </trkpt>
      <trkpt lat="50.84384348529" lon="5.68587611423">
        <ele>43.6</ele>
        <time>2019-07-13T16:40:51Z</time>
      </trkpt>
      <trkpt lat="50.843520698321" lon="5.685160719065">
        <ele>43.6</ele>
        <time>2019-07-13T16:41:13Z</time>
      </trkpt>
      <trkpt lat="50.843268151674" lon="5.685696657751">
        <ele>43.6</ele>
        <time>2019-07-13T16:41:33Z</time>
      </trkpt>
      <trkpt lat="50.843235210807" lon="5.686558149433">
        <ele>43.2</ele>
        <time>2019-07-13T16:41:48Z</time>
      </trkpt>
      <trkpt lat="50.84319807899" lon="5.68743430944">
        <ele>43</ele>
        <time>2019-07-13T16:42:04Z</time>
      </trkpt>
      <trkpt lat="50.842946035257" lon="5.688140735972">
        <ele>44.6</ele>
        <time>2019-07-13T16:42:20Z</time>
      </trkpt>
      <trkpt lat="50.842899348074" lon="5.688611798752">
        <ele>44.6</ele>
        <time>2019-07-13T16:42:28Z</time>
      </trkpt>
      <trkpt lat="50.842744869657" lon="5.688638369375">
        <ele>44.2</ele>
        <time>2019-07-13T16:42:32Z</time>
      </trkpt>
      <trkpt lat="50.842664235779" lon="5.688606601974">
        <ele>44</ele>
        <time>2019-07-13T16:42:34Z</time>
      </trkpt>
      <trkpt lat="50.8421075938" lon="5.688727468972">
        <ele>44</ele>
        <time>2019-07-13T16:42:51Z</time>
      </trkpt>
      <trkpt lat="50.841959317989" lon="5.688787064281">
        <ele>43.8</ele>
        <time>2019-07-13T16:42:57Z</time>
      </trkpt>
      <trkpt lat="50.841974740685" lon="5.688871302376">
        <ele>44</ele>
        <time>2019-07-13T16:43:00Z</time>
      </trkpt>
      <trkpt lat="50.842360224266" lon="5.689461220498">
        <ele>43.4</ele>
        <time>2019-07-13T16:43:27Z</time>
      </trkpt>
      <trkpt lat="50.842378748265" lon="5.689484438361">
        <ele>42.4</ele>
        <time>2019-07-13T16:43:29Z</time>
      </trkpt>
      <trkpt lat="50.842778313438" lon="5.690061280719">
        <ele>34.4</ele>
        <time>2019-07-13T16:43:49Z</time>
      </trkpt>
      <trkpt lat="50.842936731348" lon="5.690388258638">
        <ele>39</ele>
        <time>2019-07-13T16:43:56Z</time>
      </trkpt>
      <trkpt lat="50.842943772144" lon="5.690593112274">
        <ele>39.8</ele>
        <time>2019-07-13T16:43:59Z</time>
      </trkpt>
      <trkpt lat="50.843012587543" lon="5.69092872355">
        <ele>42.6</ele>
        <time>2019-07-13T16:44:04Z</time>
      </trkpt>
      <trkpt lat="50.84322322469" lon="5.691744869153">
        <ele>44.8</ele>
        <time>2019-07-13T16:44:17Z</time>
      </trkpt>
      <trkpt lat="50.843390527414" lon="5.692579874031">
        <ele>45.4</ele>
        <time>2019-07-13T16:44:32Z</time>
      </trkpt>
      <trkpt lat="50.843620945845" lon="5.693165936479">
        <ele>52.8</ele>
        <time>2019-07-13T16:44:41Z</time>
      </trkpt>
      <trkpt lat="50.843787745655" lon="5.693993397647">
        <ele>53.8</ele>
        <time>2019-07-13T16:44:52Z</time>
      </trkpt>
      <trkpt lat="50.844000059182" lon="5.694780038962">
        <ele>56.6</ele>
        <time>2019-07-13T16:45:03Z</time>
      </trkpt>
      <trkpt lat="50.843988743617" lon="5.694957651423">
        <ele>54.6</ele>
        <time>2019-07-13T16:45:06Z</time>
      </trkpt>
      <trkpt lat="50.843468562903" lon="5.695312373431">
        <ele>47.4</ele>
        <time>2019-07-13T16:45:18Z</time>
      </trkpt>
      <trkpt lat="50.842950226207" lon="5.695474395558">
        <ele>46.8</ele>
        <time>2019-07-13T16:45:30Z</time>
      </trkpt>
      <trkpt lat="50.842480085436" lon="5.69530575173">
        <ele>41</ele>
        <time>2019-07-13T16:45:45Z</time>
      </trkpt>
      <trkpt lat="50.842454269184" lon="5.695120763197">
        <ele>37.4</ele>
        <time>2019-07-13T16:45:50Z</time>
      </trkpt>
      <trkpt lat="50.842353015832" lon="5.69503082541">
        <ele>39.8</ele>
        <time>2019-07-13T16:45:55Z</time>
      </trkpt>
      <trkpt lat="50.842331139073" lon="5.694812476915">
        <ele>41.8</ele>
        <time>2019-07-13T16:46:02Z</time>
      </trkpt>
      <trkpt lat="50.842321164612" lon="5.695639267531">
        <ele>42</ele>
        <time>2019-07-13T16:46:21Z</time>
      </trkpt>
      <trkpt lat="50.842252265394" lon="5.695938836637">
        <ele>43</ele>
        <time>2019-07-13T16:46:31Z</time>
      </trkpt>
      <trkpt lat="50.842206081125" lon="5.696064984232">
        <ele>43</ele>
        <time>2019-07-13T16:46:36Z</time>
      </trkpt>
      <trkpt lat="50.841638961771" lon="5.696012932633">
        <ele>43</ele>
        <time>2019-07-13T16:46:55Z</time>
      </trkpt>
      <trkpt lat="50.841092042796" lon="5.69586314808">
        <ele>47.4</ele>
        <time>2019-07-13T16:47:09Z</time>
      </trkpt>
      <trkpt lat="50.840557612852" lon="5.695674806787">
        <ele>49.8</ele>
        <time>2019-07-13T16:47:23Z</time>
      </trkpt>
      <trkpt lat="50.840009268954" lon="5.695513287574">
        <ele>50.4</ele>
        <time>2019-07-13T16:47:42Z</time>
      </trkpt>
      <trkpt lat="50.839468720223" lon="5.695448411668">
        <ele>46.2</ele>
        <time>2019-07-13T16:47:56Z</time>
      </trkpt>
      <trkpt lat="50.838927081845" lon="5.695253700131">
        <ele>46.2</ele>
        <time>2019-07-13T16:48:09Z</time>
      </trkpt>
      <trkpt lat="50.83839273572" lon="5.695065107381">
        <ele>44.4</ele>
        <time>2019-07-13T16:48:22Z</time>
      </trkpt>
      <trkpt lat="50.837835423189" lon="5.694851033655">
        <ele>47</ele>
        <time>2019-07-13T16:48:37Z</time>
      </trkpt>
      <trkpt lat="50.837281463418" lon="5.694672415366">
        <ele>47.8</ele>
        <time>2019-07-13T16:48:52Z</time>
      </trkpt>
      <trkpt lat="50.83673144314" lon="5.694539897527">
        <ele>49.4</ele>
        <time>2019-07-13T16:49:08Z</time>
      </trkpt>
      <trkpt lat="50.836169352926" lon="5.694350382768">
        <ele>49</ele>
        <time>2019-07-13T16:49:23Z</time>
      </trkpt>
      <trkpt lat="50.835639113932" lon="5.694173524678">
        <ele>46.8</ele>
        <time>2019-07-13T16:49:38Z</time>
      </trkpt>
      <trkpt lat="50.835099906305" lon="5.694013095112">
        <ele>45</ele>
        <time>2019-07-13T16:49:55Z</time>
      </trkpt>
      <trkpt lat="50.834253502043" lon="5.69391100357">
        <ele>46.2</ele>
        <time>2019-07-13T16:50:18Z</time>
      </trkpt>
      <trkpt lat="50.833681521187" lon="5.693932964148">
        <ele>46</ele>
        <time>2019-07-13T16:50:36Z</time>
      </trkpt>
      <trkpt lat="50.833133344927" lon="5.694013681845">
        <ele>46</ele>
        <time>2019-07-13T16:50:48Z</time>
      </trkpt>
      <trkpt lat="50.832765630974" lon="5.694002533918">
        <ele>45.4</ele>
        <time>2019-07-13T16:50:59Z</time>
      </trkpt>
      <trkpt lat="50.832764960422" lon="5.694075707905">
        <ele>45.4</ele>
        <time>2019-07-13T16:51:02Z</time>
      </trkpt>
      <trkpt lat="50.832805109723" lon="5.694092387886">
        <ele>45.4</ele>
        <time>2019-07-13T16:51:04Z</time>
      </trkpt>
      <trkpt lat="50.832830087785" lon="5.69406020139">
        <ele>44.8</ele>
        <time>2019-07-13T16:51:06Z</time>
      </trkpt>
      <trkpt lat="50.832825896835" lon="5.694029691274">
        <ele>44.6</ele>
        <time>2019-07-13T16:51:16Z</time>
      </trkpt>
      <trkpt lat="50.832788010647" lon="5.69401493913">
        <ele>44.8</ele>
        <time>2019-07-13T16:51:22Z</time>
      </trkpt>
      <trkpt lat="50.83233848935" lon="5.693524849437">
        <ele>46.8</ele>
        <time>2019-07-13T16:51:47Z</time>
      </trkpt>
      <trkpt lat="50.831801377198" lon="5.693631299567">
        <ele>55.6</ele>
        <time>2019-07-13T16:52:06Z</time>
      </trkpt>
      <trkpt lat="50.831256302241" lon="5.693742611199">
        <ele>54.6</ele>
        <time>2019-07-13T16:52:28Z</time>
      </trkpt>
      <trkpt lat="50.831175249268" lon="5.69371235254">
        <ele>54.2</ele>
        <time>2019-07-13T16:52:32Z</time>
      </trkpt>
      <trkpt lat="50.83117508163" lon="5.693737079145">
        <ele>55</ele>
        <time>2019-07-13T16:52:34Z</time>
      </trkpt>
      <trkpt lat="50.831718480207" lon="5.693629120273">
        <ele>54</ele>
        <time>2019-07-13T16:52:48Z</time>
      </trkpt>
      <trkpt lat="50.832062892478" lon="5.693538260477">
        <ele>47.4</ele>
        <time>2019-07-13T16:52:59Z</time>
      </trkpt>
      <trkpt lat="50.832066496695" lon="5.693561226883">
        <ele>47</ele>
        <time>2019-07-13T16:53:01Z</time>
      </trkpt>
      <trkpt lat="50.831540616289" lon="5.69357069843">
        <ele>52.2</ele>
        <time>2019-07-13T16:54:18Z</time>
      </trkpt>
      <trkpt lat="50.83161764595" lon="5.693529962396">
        <ele>50.8</ele>
        <time>2019-07-13T16:54:29Z</time>
      </trkpt>
      <trkpt lat="50.831662489115" lon="5.693387386277">
        <ele>52.6</ele>
        <time>2019-07-13T16:54:40Z</time>
      </trkpt>
      <trkpt lat="50.831663075848" lon="5.693378669101">
        <ele>54</ele>
        <time>2019-07-13T16:55:15Z</time>
      </trkpt>
      <trkpt lat="50.831651927921" lon="5.693366850622">
        <ele>54.2</ele>
        <time>2019-07-13T16:55:25Z</time>
      </trkpt>
      <trkpt lat="50.83166039364" lon="5.693411693787">
        <ele>59.4</ele>
        <time>2019-07-13T16:56:22Z</time>
      </trkpt>
      <trkpt lat="50.831654107215" lon="5.69329912487">
        <ele>60.2</ele>
        <time>2019-07-13T16:56:33Z</time>
      </trkpt>
      <trkpt lat="50.831525864145" lon="5.692457665929">
        <ele>60.8</ele>
        <time>2019-07-13T16:56:57Z</time>
      </trkpt>
      <trkpt lat="50.83142821501" lon="5.691808403955">
        <ele>63.2</ele>
        <time>2019-07-13T16:57:19Z</time>
      </trkpt>
      <trkpt lat="50.831426287173" lon="5.691765069532">
        <ele>62.8</ele>
        <time>2019-07-13T16:57:22Z</time>
      </trkpt>
      <trkpt lat="50.831313466799" lon="5.690919922555">
        <ele>66.8</ele>
        <time>2019-07-13T16:57:51Z</time>
      </trkpt>
      <trkpt lat="50.831263343037" lon="5.690499234994">
        <ele>68.8</ele>
        <time>2019-07-13T16:58:03Z</time>
      </trkpt>
      <trkpt lat="50.831216907311" lon="5.690361101282">
        <ele>69.4</ele>
        <time>2019-07-13T16:58:12Z</time>
      </trkpt>
      <trkpt lat="50.831223780469" lon="5.690368393535">
        <ele>69.4</ele>
        <time>2019-07-13T16:58:20Z</time>
      </trkpt>
      <trkpt lat="50.831233587292" lon="5.690443495359">
        <ele>69.2</ele>
        <time>2019-07-13T16:58:26Z</time>
      </trkpt>
      <trkpt lat="50.831250686368" lon="5.690539635752">
        <ele>68.8</ele>
        <time>2019-07-13T16:58:31Z</time>
      </trkpt>
      <trkpt lat="50.831254961137" lon="5.690585736202">
        <ele>69.8</ele>
        <time>2019-07-13T16:59:07Z</time>
      </trkpt>
      <trkpt lat="50.831278514276" lon="5.690636362878">
        <ele>70.8</ele>
        <time>2019-07-13T16:59:11Z</time>
      </trkpt>
      <trkpt lat="50.831399129817" lon="5.691536998033">
        <ele>66.2</ele>
        <time>2019-07-13T16:59:24Z</time>
      </trkpt>
      <trkpt lat="50.831521421738" lon="5.692436543541">
        <ele>59.6</ele>
        <time>2019-07-13T16:59:33Z</time>
      </trkpt>
      <trkpt lat="50.83164446803" lon="5.693296945576">
        <ele>56.4</ele>
        <time>2019-07-13T16:59:42Z</time>
      </trkpt>
      <trkpt lat="50.831575652631" lon="5.693663486063">
        <ele>53.8</ele>
        <time>2019-07-13T16:59:52Z</time>
      </trkpt>
      <trkpt lat="50.831569198568" lon="5.693641776942">
        <ele>52.8</ele>
        <time>2019-07-13T17:00:08Z</time>
      </trkpt>
      <trkpt lat="50.831535419511" lon="5.693661725864">
        <ele>52.8</ele>
        <time>2019-07-13T17:00:14Z</time>
      </trkpt>
      <trkpt lat="50.831425784259" lon="5.693725009209">
        <ele>51.6</ele>
        <time>2019-07-13T17:00:21Z</time>
      </trkpt>
      <trkpt lat="50.831358980516" lon="5.693730457444">
        <ele>51.2</ele>
        <time>2019-07-13T17:00:26Z</time>
      </trkpt>
      <trkpt lat="50.831372643013" lon="5.693750574004">
        <ele>51.4</ele>
        <time>2019-07-13T17:00:28Z</time>
      </trkpt>
      <trkpt lat="50.831549836379" lon="5.693744958131">
        <ele>56.8</ele>
        <time>2019-07-13T17:00:40Z</time>
      </trkpt>
      <trkpt lat="50.831515219132" lon="5.693665749176">
        <ele>59.2</ele>
        <time>2019-07-13T17:01:24Z</time>
      </trkpt>
      <trkpt lat="50.831523265756" lon="5.693617134156">
        <ele>59.2</ele>
        <time>2019-07-13T17:01:29Z</time>
      </trkpt>
      <trkpt lat="50.831555200795" lon="5.693540188314">
        <ele>59</ele>
        <time>2019-07-13T17:01:33Z</time>
      </trkpt>
      <trkpt lat="50.831677073621" lon="5.693497608262">
        <ele>58.6</ele>
        <time>2019-07-13T17:01:43Z</time>
      </trkpt>
      <trkpt lat="50.831652933749" lon="5.693534488622">
        <ele>58.4</ele>
        <time>2019-07-13T17:02:22Z</time>
      </trkpt>
      <trkpt lat="50.831588896033" lon="5.69359668232">
        <ele>58.4</ele>
        <time>2019-07-13T17:02:26Z</time>
      </trkpt>
      <trkpt lat="50.831581268504" lon="5.693643788598">
        <ele>58.2</ele>
        <time>2019-07-13T17:02:28Z</time>
      </trkpt>
      <trkpt lat="50.831602139435" lon="5.693675136904">
        <ele>58.2</ele>
        <time>2019-07-13T17:02:30Z</time>
      </trkpt>
      <trkpt lat="50.831642959288" lon="5.693701288432">
        <ele>57.2</ele>
        <time>2019-07-13T17:02:50Z</time>
      </trkpt>
      <trkpt lat="50.831655951233" lon="5.693655271801">
        <ele>64.4</ele>
        <time>2019-07-13T17:03:16Z</time>
      </trkpt>
      <trkpt lat="50.831684617331" lon="5.693642950408">
        <ele>64</ele>
        <time>2019-07-13T17:03:22Z</time>
      </trkpt>
      <trkpt lat="50.832187866607" lon="5.693504816696">
        <ele>53</ele>
        <time>2019-07-13T17:03:33Z</time>
      </trkpt>
      <trkpt lat="50.832397330288" lon="5.693546474739">
        <ele>51.2</ele>
        <time>2019-07-13T17:03:36Z</time>
      </trkpt>
      <trkpt lat="50.832529177575" lon="5.693652673412">
        <ele>49.8</ele>
        <time>2019-07-13T17:03:38Z</time>
      </trkpt>
      <trkpt lat="50.832721374542" lon="5.693847552587">
        <ele>46.8</ele>
        <time>2019-07-13T17:03:42Z</time>
      </trkpt>
      <trkpt lat="50.832802259877" lon="5.694082748701">
        <ele>46.8</ele>
        <time>2019-07-13T17:03:49Z</time>
      </trkpt>
      <trkpt lat="50.832765295698" lon="5.694055088431">
        <ele>56.2</ele>
        <time>2019-07-13T17:04:21Z</time>
      </trkpt>
      <trkpt lat="50.832775018702" lon="5.69414485858">
        <ele>55.4</ele>
        <time>2019-07-13T17:04:25Z</time>
      </trkpt>
      <trkpt lat="50.832799661488" lon="5.694196574903">
        <ele>54</ele>
        <time>2019-07-13T17:04:27Z</time>
      </trkpt>
      <trkpt lat="50.833045837891" lon="5.694461442943">
        <ele>45.4</ele>
        <time>2019-07-13T17:04:49Z</time>
      </trkpt>
      <trkpt lat="50.833535592308" lon="5.694420287814">
        <ele>45.4</ele>
        <time>2019-07-13T17:05:40Z</time>
      </trkpt>
      <trkpt lat="50.83357146684" lon="5.694404529842">
        <ele>46.2</ele>
        <time>2019-07-13T17:05:43Z</time>
      </trkpt>
      <trkpt lat="50.833952591833" lon="5.69438206635">
        <ele>48.2</ele>
        <time>2019-07-13T17:05:54Z</time>
      </trkpt>
      <trkpt lat="50.834498002066" lon="5.69443068137">
        <ele>48.4</ele>
        <time>2019-07-13T17:06:05Z</time>
      </trkpt>
      <trkpt lat="50.835080292659" lon="5.694524223374">
        <ele>50.8</ele>
        <time>2019-07-13T17:06:17Z</time>
      </trkpt>
      <trkpt lat="50.835647328194" lon="5.694672163909">
        <ele>48.8</ele>
        <time>2019-07-13T17:06:30Z</time>
      </trkpt>
      <trkpt lat="50.836206065648" lon="5.694841478289">
        <ele>48.8</ele>
        <time>2019-07-13T17:06:44Z</time>
      </trkpt>
      <trkpt lat="50.836772933545" lon="5.695012217592">
        <ele>46.6</ele>
        <time>2019-07-13T17:06:58Z</time>
      </trkpt>
      <trkpt lat="50.837299652141" lon="5.695214724296">
        <ele>48.4</ele>
        <time>2019-07-13T17:07:13Z</time>
      </trkpt>
      <trkpt lat="50.837849337143" lon="5.695382110839">
        <ele>48</ele>
        <time>2019-07-13T17:07:30Z</time>
      </trkpt>
      <trkpt lat="50.838396842851" lon="5.695562070232">
        <ele>53.6</ele>
        <time>2019-07-13T17:07:50Z</time>
      </trkpt>
      <trkpt lat="50.838935128469" lon="5.695724343816">
        <ele>50.4</ele>
        <time>2019-07-13T17:08:11Z</time>
      </trkpt>
      <trkpt lat="50.83948070634" lon="5.695926347606">
        <ele>51</ele>
        <time>2019-07-13T17:08:29Z</time>
      </trkpt>
      <trkpt lat="50.840029385514" lon="5.696121226781">
        <ele>48.6</ele>
        <time>2019-07-13T17:08:49Z</time>
      </trkpt>
      <trkpt lat="50.840583429104" lon="5.696281153433">
        <ele>48.4</ele>
        <time>2019-07-13T17:09:06Z</time>
      </trkpt>
      <trkpt lat="50.841119451609" lon="5.69641048615">
        <ele>47.6</ele>
        <time>2019-07-13T17:09:22Z</time>
      </trkpt>
      <trkpt lat="50.841652288992" lon="5.696317195603">
        <ele>48.6</ele>
        <time>2019-07-13T17:09:39Z</time>
      </trkpt>
      <trkpt lat="50.842018158927" lon="5.69642473538">
        <ele>49.6</ele>
        <time>2019-07-13T17:09:50Z</time>
      </trkpt>
      <trkpt lat="50.842108515809" lon="5.696468656536">
        <ele>49.4</ele>
        <time>2019-07-13T17:10:03Z</time>
      </trkpt>
      <trkpt lat="50.842636910785" lon="5.696732770205">
        <ele>49.6</ele>
        <time>2019-07-13T17:10:26Z</time>
      </trkpt>
      <trkpt lat="50.842906556508" lon="5.696434290746">
        <ele>46.8</ele>
        <time>2019-07-13T17:10:41Z</time>
      </trkpt>
      <trkpt lat="50.843208724003" lon="5.696391459237">
        <ele>45</ele>
        <time>2019-07-13T17:10:59Z</time>
      </trkpt>
      <trkpt lat="50.843204952148" lon="5.696388525572">
        <ele>44</ele>
        <time>2019-07-13T17:11:05Z</time>
      </trkpt>
      <trkpt lat="50.843226661269" lon="5.696371342677">
        <ele>44</ele>
        <time>2019-07-13T17:11:10Z</time>
      </trkpt>
      <trkpt lat="50.843740304101" lon="5.696173194561">
        <ele>48.8</ele>
        <time>2019-07-13T17:11:36Z</time>
      </trkpt>
      <trkpt lat="50.844269704905" lon="5.696026176035">
        <ele>47.8</ele>
        <time>2019-07-13T17:11:56Z</time>
      </trkpt>
      <trkpt lat="50.844775971665" lon="5.695756530312">
        <ele>47.2</ele>
        <time>2019-07-13T17:12:14Z</time>
      </trkpt>
      <trkpt lat="50.845317693862" lon="5.695529883736">
        <ele>46.2</ele>
        <time>2019-07-13T17:12:33Z</time>
      </trkpt>
      <trkpt lat="50.845844580096" lon="5.69531748639">
        <ele>41.4</ele>
        <time>2019-07-13T17:12:49Z</time>
      </trkpt>
      <trkpt lat="50.846381189334" lon="5.695163678525">
        <ele>42.4</ele>
        <time>2019-07-13T17:13:05Z</time>
      </trkpt>
      <trkpt lat="50.846925258463" lon="5.694927225126">
        <ele>44.8</ele>
        <time>2019-07-13T17:13:21Z</time>
      </trkpt>
      <trkpt lat="50.847106894236" lon="5.694997549267">
        <ele>46.2</ele>
        <time>2019-07-13T17:13:34Z</time>
      </trkpt>
      <trkpt lat="50.847091303902" lon="5.695269039008">
        <ele>46.4</ele>
        <time>2019-07-13T17:13:42Z</time>
      </trkpt>
      <trkpt lat="50.847089208427" lon="5.695269374284">
        <ele>46</ele>
        <time>2019-07-13T17:13:54Z</time>
      </trkpt>
      <trkpt lat="50.847076635577" lon="5.695314888001">
        <ele>45.8</ele>
        <time>2019-07-13T17:13:58Z</time>
      </trkpt>
      <trkpt lat="50.847079988337" lon="5.695462409441">
        <ele>45</ele>
        <time>2019-07-13T17:14:05Z</time>
      </trkpt>
      <trkpt lat="50.847096584499" lon="5.695588640855">
        <ele>43.8</ele>
        <time>2019-07-13T17:14:10Z</time>
      </trkpt>
      <trkpt lat="50.847230694899" lon="5.695542791862">
        <ele>43</ele>
        <time>2019-07-13T17:14:20Z</time>
      </trkpt>
      <trkpt lat="50.847229018519" lon="5.695543043319">
        <ele>43.6</ele>
        <time>2019-07-13T17:14:44Z</time>
      </trkpt>
      <trkpt lat="50.847242764835" lon="5.695474730834">
        <ele>43</ele>
        <time>2019-07-13T17:14:49Z</time>
      </trkpt>
      <trkpt lat="50.847263216671" lon="5.695317989304">
        <ele>43.4</ele>
        <time>2019-07-13T17:14:53Z</time>
      </trkpt>
      <trkpt lat="50.847210410701" lon="5.694963015839">
        <ele>42.8</ele>
        <time>2019-07-13T17:15:00Z</time>
      </trkpt>
      <trkpt lat="50.847752216717" lon="5.695010960307">
        <ele>42.6</ele>
        <time>2019-07-13T17:15:17Z</time>
      </trkpt>
      <trkpt lat="50.848301734081" lon="5.694964440762">
        <ele>45</ele>
        <time>2019-07-13T17:15:35Z</time>
      </trkpt>
      <trkpt lat="50.848817556207" lon="5.694635367368">
        <ele>48.2</ele>
        <time>2019-07-13T17:15:53Z</time>
      </trkpt>
      <trkpt lat="50.849297168525" lon="5.694292212382">
        <ele>55.8</ele>
        <time>2019-07-13T17:16:15Z</time>
      </trkpt>
      <trkpt lat="50.849380065516" lon="5.695158397928">
        <ele>51.2</ele>
        <time>2019-07-13T17:16:40Z</time>
      </trkpt>
      <trkpt lat="50.849413174021" lon="5.696009579873">
        <ele>50.4</ele>
        <time>2019-07-13T17:17:05Z</time>
      </trkpt>
      <trkpt lat="50.849434547866" lon="5.696894289418">
        <ele>48.6</ele>
        <time>2019-07-13T17:17:30Z</time>
      </trkpt>
      <trkpt lat="50.849462543412" lon="5.697791487994">
        <ele>46.4</ele>
        <time>2019-07-13T17:17:49Z</time>
      </trkpt>
      <trkpt lat="50.849457849548" lon="5.698644178681">
        <ele>43</ele>
        <time>2019-07-13T17:18:03Z</time>
      </trkpt>
      <trkpt lat="50.849468075466" lon="5.699504413078">
        <ele>50.8</ele>
        <time>2019-07-13T17:18:19Z</time>
      </trkpt>
      <trkpt lat="50.849521635807" lon="5.700371436814">
        <ele>60.6</ele>
        <time>2019-07-13T17:18:33Z</time>
      </trkpt>
      <trkpt lat="50.849560444004" lon="5.701235023971">
        <ele>66</ele>
        <time>2019-07-13T17:18:50Z</time>
      </trkpt>
      <trkpt lat="50.849600090391" lon="5.701715306841">
        <ele>60.8</ele>
        <time>2019-07-13T17:19:03Z</time>
      </trkpt>
      <trkpt lat="50.849596402355" lon="5.701729388433">
        <ele>58.6</ele>
        <time>2019-07-13T17:19:55Z</time>
      </trkpt>
      <trkpt lat="50.849595396527" lon="5.701742799473">
        <ele>59</ele>
        <time>2019-07-13T17:19:58Z</time>
      </trkpt>
      <trkpt lat="50.849625152272" lon="5.70263823785">
        <ele>59</ele>
        <time>2019-07-13T17:20:19Z</time>
      </trkpt>
      <trkpt lat="50.849667732324" lon="5.703534430598">
        <ele>58.8</ele>
        <time>2019-07-13T17:20:35Z</time>
      </trkpt>
      <trkpt lat="50.849716850258" lon="5.704427941138">
        <ele>58.6</ele>
        <time>2019-07-13T17:20:52Z</time>
      </trkpt>
      <trkpt lat="50.849390542891" lon="5.704983409651">
        <ele>55.4</ele>
        <time>2019-07-13T17:21:13Z</time>
      </trkpt>
      <trkpt lat="50.848862315553" lon="5.705218521946">
        <ele>51.4</ele>
        <time>2019-07-13T17:21:26Z</time>
      </trkpt>
      <trkpt lat="50.848351187291" lon="5.705492442438">
        <ele>53.6</ele>
        <time>2019-07-13T17:21:42Z</time>
      </trkpt>
      <trkpt lat="50.847825390704" lon="5.705736942461">
        <ele>50.6</ele>
        <time>2019-07-13T17:21:58Z</time>
      </trkpt>
      <trkpt lat="50.847604779096" lon="5.705823862764">
        <ele>55.8</ele>
        <time>2019-07-13T17:22:07Z</time>
      </trkpt>
      <trkpt lat="50.847536885706" lon="5.704971507353">
        <ele>51.8</ele>
        <time>2019-07-13T17:22:23Z</time>
      </trkpt>
      <trkpt lat="50.847470584877" lon="5.704078080632">
        <ele>52.6</ele>
        <time>2019-07-13T17:22:40Z</time>
      </trkpt>
      <trkpt lat="50.847426244626" lon="5.703323122899">
        <ele>51.4</ele>
        <time>2019-07-13T17:22:55Z</time>
      </trkpt>
      <trkpt lat="50.847397746166" lon="5.70329873157">
        <ele>51.8</ele>
        <time>2019-07-13T17:22:58Z</time>
      </trkpt>
      <trkpt lat="50.847411576301" lon="5.703326894754">
        <ele>50.8</ele>
        <time>2019-07-13T17:23:34Z</time>
      </trkpt>
      <trkpt lat="50.847367571326" lon="5.703363439838">
        <ele>50.2</ele>
        <time>2019-07-13T17:23:43Z</time>
      </trkpt>
      <trkpt lat="50.846819478885" lon="5.703514565495">
        <ele>52.4</ele>
        <time>2019-07-13T17:24:08Z</time>
      </trkpt>
      <trkpt lat="50.846583025486" lon="5.703452539435">
        <ele>55</ele>
        <time>2019-07-13T17:24:16Z</time>
      </trkpt>
      <trkpt lat="50.846196116982" lon="5.702868572462">
        <ele>51.8</ele>
        <time>2019-07-13T17:24:31Z</time>
      </trkpt>
      <trkpt lat="50.845892776021" lon="5.70223674484">
        <ele>53.4</ele>
        <time>2019-07-13T17:24:49Z</time>
      </trkpt>
      <trkpt lat="50.845839634775" lon="5.702328861921">
        <ele>55.4</ele>
        <time>2019-07-13T17:24:59Z</time>
      </trkpt>
      <trkpt lat="50.845280645864" lon="5.702363898263">
        <ele>63.8</ele>
        <time>2019-07-13T17:25:16Z</time>
      </trkpt>
      <trkpt lat="50.844716376356" lon="5.702477640646">
        <ele>57.6</ele>
        <time>2019-07-13T17:25:31Z</time>
      </trkpt>
      <trkpt lat="50.844168367734" lon="5.70259632835">
        <ele>65.2</ele>
        <time>2019-07-13T17:25:47Z</time>
      </trkpt>
      <trkpt lat="50.843622035492" lon="5.702700347729">
        <ele>60.6</ele>
        <time>2019-07-13T17:26:04Z</time>
      </trkpt>
      <trkpt lat="50.842577399295" lon="5.702940740621">
        <ele>54.6</ele>
        <time>2019-07-13T17:26:33Z</time>
      </trkpt>
      <trkpt lat="50.842046322111" lon="5.703120616195">
        <ele>55.6</ele>
        <time>2019-07-13T17:26:50Z</time>
      </trkpt>
      <trkpt lat="50.84184104938" lon="5.703270065472">
        <ele>53.6</ele>
        <time>2019-07-13T17:26:56Z</time>
      </trkpt>
      <trkpt lat="50.841679530167" lon="5.704086881627">
        <ele>50</ele>
        <time>2019-07-13T17:27:13Z</time>
      </trkpt>
      <trkpt lat="50.841876672455" lon="5.704427605862">
        <ele>49.8</ele>
        <time>2019-07-13T17:27:27Z</time>
      </trkpt>
      <trkpt lat="50.842255618154" lon="5.704709992073">
        <ele>50</ele>
        <time>2019-07-13T17:27:45Z</time>
      </trkpt>
      <trkpt lat="50.842760879086" lon="5.705094805102">
        <ele>47.8</ele>
        <time>2019-07-13T17:28:05Z</time>
      </trkpt>
      <trkpt lat="50.843271672072" lon="5.705432428034">
        <ele>47</ele>
        <time>2019-07-13T17:28:21Z</time>
      </trkpt>
      <trkpt lat="50.843707111777" lon="5.705929223247">
        <ele>47.6</ele>
        <time>2019-07-13T17:28:37Z</time>
      </trkpt>
      <trkpt lat="50.844111789909" lon="5.706553255702">
        <ele>47</ele>
        <time>2019-07-13T17:28:52Z</time>
      </trkpt>
      <trkpt lat="50.844329300214" lon="5.706938655464">
        <ele>46.2</ele>
        <time>2019-07-13T17:29:02Z</time>
      </trkpt>
      <trkpt lat="50.844307674912" lon="5.706972266883">
        <ele>45.4</ele>
        <time>2019-07-13T17:29:04Z</time>
      </trkpt>
      <trkpt lat="50.844274566407" lon="5.706847041297">
        <ele>43.8</ele>
        <time>2019-07-13T17:29:09Z</time>
      </trkpt>
      <trkpt lat="50.844491909074" lon="5.70758020609">
        <ele>44.6</ele>
        <time>2019-07-13T17:29:26Z</time>
      </trkpt>
      <trkpt lat="50.844505990666" lon="5.707612811681">
        <ele>44.8</ele>
        <time>2019-07-13T17:29:27Z</time>
      </trkpt>
      <trkpt lat="50.844560305378" lon="5.707640639589">
        <ele>45.2</ele>
        <time>2019-07-13T17:29:29Z</time>
      </trkpt>
      <trkpt lat="50.844746970291" lon="5.70760367541">
        <ele>45.4</ele>
        <time>2019-07-13T17:29:38Z</time>
      </trkpt>
      <trkpt lat="50.844770439611" lon="5.707572243285">
        <ele>50.4</ele>
        <time>2019-07-13T17:30:05Z</time>
      </trkpt>
      <trkpt lat="50.845289782135" lon="5.707347776003">
        <ele>54.8</ele>
        <time>2019-07-13T17:30:25Z</time>
      </trkpt>
      <trkpt lat="50.845815327265" lon="5.707051140562">
        <ele>55.4</ele>
        <time>2019-07-13T17:30:42Z</time>
      </trkpt>
      <trkpt lat="50.846247246572" lon="5.706964471716">
        <ele>52.6</ele>
        <time>2019-07-13T17:30:58Z</time>
      </trkpt>
      <trkpt lat="50.846310529917" lon="5.707129176051">
        <ele>50.6</ele>
        <time>2019-07-13T17:31:04Z</time>
      </trkpt>
      <trkpt lat="50.846395522383" lon="5.707155579036">
        <ele>48.4</ele>
        <time>2019-07-13T17:31:11Z</time>
      </trkpt>
      <trkpt lat="50.846400383885" lon="5.707159686167">
        <ele>48.4</ele>
        <time>2019-07-13T17:31:14Z</time>
      </trkpt>
      <trkpt lat="50.846401222075" lon="5.707162871289">
        <ele>48.2</ele>
        <time>2019-07-13T17:31:17Z</time>
      </trkpt>
      <trkpt lat="50.846410106889" lon="5.707153651199">
        <ele>48.2</ele>
        <time>2019-07-13T17:31:24Z</time>
      </trkpt>
      <trkpt lat="50.84643349239" lon="5.707108808034">
        <ele>48.4</ele>
        <time>2019-07-13T17:31:27Z</time>
      </trkpt>
      <trkpt lat="50.84682241255" lon="5.706684935351">
        <ele>48.2</ele>
        <time>2019-07-13T17:31:44Z</time>
      </trkpt>
      <trkpt lat="50.847357429227" lon="5.706417217465">
        <ele>48.2</ele>
        <time>2019-07-13T17:32:02Z</time>
      </trkpt>
      <trkpt lat="50.847735536736" lon="5.705783042911">
        <ele>47.2</ele>
        <time>2019-07-13T17:32:18Z</time>
      </trkpt>
      <trkpt lat="50.847757162038" lon="5.705769631871">
        <ele>47.2</ele>
        <time>2019-07-13T17:32:19Z</time>
      </trkpt>
      <trkpt lat="50.847759006056" lon="5.70577055388">
        <ele>47.2</ele>
        <time>2019-07-13T17:32:21Z</time>
      </trkpt>
      <trkpt lat="50.847746768482" lon="5.70578061216">
        <ele>47.6</ele>
        <time>2019-07-13T17:32:23Z</time>
      </trkpt>
      <trkpt lat="50.847739140953" lon="5.705780528341">
        <ele>48</ele>
        <time>2019-07-13T17:32:35Z</time>
      </trkpt>
      <trkpt lat="50.848273654716" lon="5.705522868735">
        <ele>49.6</ele>
        <time>2019-07-13T17:32:57Z</time>
      </trkpt>
      <trkpt lat="50.848807917022" lon="5.705308543552">
        <ele>52.2</ele>
        <time>2019-07-13T17:33:14Z</time>
      </trkpt>
      <trkpt lat="50.848826441021" lon="5.705341149143">
        <ele>51.4</ele>
        <time>2019-07-13T17:33:15Z</time>
      </trkpt>
      <trkpt lat="50.848901710483" lon="5.705564610597">
        <ele>49.6</ele>
        <time>2019-07-13T17:33:22Z</time>
      </trkpt>
      <trkpt lat="50.849417197333" lon="5.705300580747">
        <ele>45.6</ele>
        <time>2019-07-13T17:33:41Z</time>
      </trkpt>
      <trkpt lat="50.849687513608" lon="5.705106455943">
        <ele>44.6</ele>
        <time>2019-07-13T17:33:54Z</time>
      </trkpt>
      <trkpt lat="50.849839309817" lon="5.704801019507">
        <ele>48.2</ele>
        <time>2019-07-13T17:34:08Z</time>
      </trkpt>
      <trkpt lat="50.849739732845" lon="5.704538833675">
        <ele>49.8</ele>
        <time>2019-07-13T17:34:19Z</time>
      </trkpt>
      <trkpt lat="50.849725651253" lon="5.704418721048">
        <ele>49.8</ele>
        <time>2019-07-13T17:34:21Z</time>
      </trkpt>
      <trkpt lat="50.849693548576" lon="5.703549015104">
        <ele>49.2</ele>
        <time>2019-07-13T17:34:34Z</time>
      </trkpt>
      <trkpt lat="50.849691872196" lon="5.702863962417">
        <ele>49.4</ele>
        <time>2019-07-13T17:34:51Z</time>
      </trkpt>
      <trkpt lat="50.849693883852" lon="5.702864130055">
        <ele>49.2</ele>
        <time>2019-07-13T17:34:53Z</time>
      </trkpt>
      <trkpt lat="50.849698158621" lon="5.702821550003">
        <ele>48.6</ele>
        <time>2019-07-13T17:34:57Z</time>
      </trkpt>
      <trkpt lat="50.849657422587" lon="5.702318803641">
        <ele>47.6</ele>
        <time>2019-07-13T17:35:18Z</time>
      </trkpt>
      <trkpt lat="50.849657925501" lon="5.70232056384">
        <ele>47.4</ele>
        <time>2019-07-13T17:35:35Z</time>
      </trkpt>
      <trkpt lat="50.849654153646" lon="5.702289802267">
        <ele>47.4</ele>
        <time>2019-07-13T17:35:39Z</time>
      </trkpt>
      <trkpt lat="50.849610148671" lon="5.701407272016">
        <ele>47.4</ele>
        <time>2019-07-13T17:35:59Z</time>
      </trkpt>
      <trkpt lat="50.849603610789" lon="5.701231503573">
        <ele>47.2</ele>
        <time>2019-07-13T17:36:05Z</time>
      </trkpt>
      <trkpt lat="50.84961274706" lon="5.701272658702">
        <ele>51.2</ele>
        <time>2019-07-13T17:37:10Z</time>
      </trkpt>
      <trkpt lat="50.849634120905" lon="5.701226306795">
        <ele>46.6</ele>
        <time>2019-07-13T17:37:13Z</time>
      </trkpt>
      <trkpt lat="50.849614004345" lon="5.701136704284">
        <ele>47.6</ele>
        <time>2019-07-13T17:37:18Z</time>
      </trkpt>
      <trkpt lat="50.849587266084" lon="5.700971748492">
        <ele>48.2</ele>
        <time>2019-07-13T17:37:24Z</time>
      </trkpt>
      <trkpt lat="50.849616518915" lon="5.700923971662">
        <ele>48.6</ele>
        <time>2019-07-13T17:37:26Z</time>
      </trkpt>
      <trkpt lat="50.850084731849" lon="5.700476629659">
        <ele>51.4</ele>
        <time>2019-07-13T17:37:47Z</time>
      </trkpt>
      <trkpt lat="50.850560572312" lon="5.700057786116">
        <ele>50.4</ele>
        <time>2019-07-13T17:38:04Z</time>
      </trkpt>
      <trkpt lat="50.850790236372" lon="5.69992836958">
        <ele>45.4</ele>
        <time>2019-07-13T17:38:14Z</time>
      </trkpt>
      <trkpt lat="50.850957036182" lon="5.700746778296">
        <ele>49.4</ele>
        <time>2019-07-13T17:38:33Z</time>
      </trkpt>
      <trkpt lat="50.851026354495" lon="5.701137793931">
        <ele>48.2</ele>
        <time>2019-07-13T17:38:40Z</time>
      </trkpt>
      <trkpt lat="50.851090224573" lon="5.701332002554">
        <ele>49.8</ele>
        <time>2019-07-13T17:38:43Z</time>
      </trkpt>
      <trkpt lat="50.851243445705" lon="5.70218645344">
        <ele>49</ele>
        <time>2019-07-13T17:38:59Z</time>
      </trkpt>
      <trkpt lat="50.851358110097" lon="5.70302212887">
        <ele>44.2</ele>
        <time>2019-07-13T17:39:16Z</time>
      </trkpt>
      <trkpt lat="50.851528765581" lon="5.703843471251">
        <ele>45</ele>
        <time>2019-07-13T17:39:32Z</time>
      </trkpt>
      <trkpt lat="50.851013027274" lon="5.704145387289">
        <ele>43.6</ele>
        <time>2019-07-13T17:39:46Z</time>
      </trkpt>
      <trkpt lat="50.850483039737" lon="5.704399023583">
        <ele>46.2</ele>
        <time>2019-07-13T17:39:59Z</time>
      </trkpt>
      <trkpt lat="50.850253878591" lon="5.704615863336">
        <ele>44.6</ele>
        <time>2019-07-13T17:40:07Z</time>
      </trkpt>
      <trkpt lat="50.850288244381" lon="5.704708231874">
        <ele>44.6</ele>
        <time>2019-07-13T17:40:09Z</time>
      </trkpt>
      <trkpt lat="50.850799540281" lon="5.704597339337">
        <ele>49.8</ele>
        <time>2019-07-13T17:40:27Z</time>
      </trkpt>
      <trkpt lat="50.851317541701" lon="5.704313947298">
        <ele>53.6</ele>
        <time>2019-07-13T17:40:43Z</time>
      </trkpt>
      <trkpt lat="50.85163529953" lon="5.704085037609">
        <ele>49.4</ele>
        <time>2019-07-13T17:40:54Z</time>
      </trkpt>
      <trkpt lat="50.851629935114" lon="5.703992920528">
        <ele>50.2</ele>
        <time>2019-07-13T17:40:56Z</time>
      </trkpt>
      <trkpt lat="50.851650554588" lon="5.703932738486">
        <ele>50</ele>
        <time>2019-07-13T17:40:58Z</time>
      </trkpt>
      <trkpt lat="50.851672096071" lon="5.703906251682">
        <ele>49.2</ele>
        <time>2019-07-13T17:41:00Z</time>
      </trkpt>
      <trkpt lat="50.851676789935" lon="5.703835592265">
        <ele>48</ele>
        <time>2019-07-13T17:41:04Z</time>
      </trkpt>
      <trkpt lat="50.851354086785" lon="5.703955285797">
        <ele>47</ele>
        <time>2019-07-13T17:41:15Z</time>
      </trkpt>
      <trkpt lat="50.850824350705" lon="5.704222584588">
        <ele>47</ele>
        <time>2019-07-13T17:41:28Z</time>
      </trkpt>
      <trkpt lat="50.850294363168" lon="5.704475466511">
        <ele>47.4</ele>
        <time>2019-07-13T17:41:43Z</time>
      </trkpt>
      <trkpt lat="50.849775691196" lon="5.704720553267">
        <ele>48.8</ele>
        <time>2019-07-13T17:41:59Z</time>
      </trkpt>
      <trkpt lat="50.849223743081" lon="5.704990701904">
        <ele>50</ele>
        <time>2019-07-13T17:42:16Z</time>
      </trkpt>
      <trkpt lat="50.848765169332" lon="5.705173008229">
        <ele>51.4</ele>
        <time>2019-07-13T17:42:28Z</time>
      </trkpt>
      <trkpt lat="50.848723762746" lon="5.704307577054">
        <ele>53.6</ele>
        <time>2019-07-13T17:42:44Z</time>
      </trkpt>
      <trkpt lat="50.848700125788" lon="5.703399230551">
        <ele>56.2</ele>
        <time>2019-07-13T17:43:00Z</time>
      </trkpt>
      <trkpt lat="50.848731725551" lon="5.702579229274">
        <ele>58.4</ele>
        <time>2019-07-13T17:43:16Z</time>
      </trkpt>
      <trkpt lat="50.849265149667" lon="5.702260717074">
        <ele>54.6</ele>
        <time>2019-07-13T17:43:34Z</time>
      </trkpt>
      <trkpt lat="50.849425998328" lon="5.702203971611">
        <ele>54</ele>
        <time>2019-07-13T17:43:39Z</time>
      </trkpt>
      <trkpt lat="50.849482492334" lon="5.70229960909">
        <ele>52.6</ele>
        <time>2019-07-13T17:43:42Z</time>
      </trkpt>
      <trkpt lat="50.849557007425" lon="5.703157412736">
        <ele>48.8</ele>
        <time>2019-07-13T17:43:58Z</time>
      </trkpt>
      <trkpt lat="50.849631438697" lon="5.703835927541">
        <ele>50.4</ele>
        <time>2019-07-13T17:44:19Z</time>
      </trkpt>
      <trkpt lat="50.849657254949" lon="5.704697167766">
        <ele>50.2</ele>
        <time>2019-07-13T17:44:41Z</time>
      </trkpt>
      <trkpt lat="50.849395236755" lon="5.705391272905">
        <ele>45.6</ele>
        <time>2019-07-13T17:45:00Z</time>
      </trkpt>
      <trkpt lat="50.849214103896" lon="5.705630995245">
        <ele>47</ele>
        <time>2019-07-13T17:45:10Z</time>
      </trkpt>
    </trkseg>
  </trk>
</gpx>